Time,TemperatureF,DewpointF,PressureIn,WindDirection,WindDirectionDegrees,WindSpeedMPH,WindSpeedGustMPH,Humidity,HourlyPrecipIn,Conditions,Clouds,dailyrainin,SoftwareType,DateUTC
2013-06-12 00:00:00,75.3,64.4,29.84,North,0,0.0,0.0,69,0.00,,CLR,0.00,VWS V14.01,2013-06-12 05:00:00,
2013-06-12 00:04:00,74.8,64.0,29.84,North,0,0.0,0.0,69,0.00,,CLR,0.00,VWS V14.01,2013-06-12 05:04:00,
2013-06-12 00:08:00,75.0,64.6,29.84,North,0,0.0,0.0,70,0.00,,CLR,0.00,VWS V14.01,2013-06-12 05:08:00,
2013-06-12 00:11:00,74.8,64.4,29.84,North,0,0.0,0.0,70,0.00,,CLR,0.00,VWS V14.01,2013-06-12 05:11:00,
2013-06-12 00:13:00,74.8,64.4,29.84,North,0,0.0,0.0,70,0.00,,CLR,0.00,VWS V14.01,2013-06-12 05:13:00,
2013-06-12 00:14:00,74.8,64.4,29.84,North,0,0.0,0.0,70,0.00,,CLR,0.00,VWS V14.01,2013-06-12 05:14:00,
2013-06-12 00:16:00,74.8,64.8,29.84,North,0,0.0,0.0,71,0.00,,CLR,0.00,VWS V14.01,2013-06-12 05:16:00,
2013-06-12 00:18:00,75.0,65.0,29.84,North,0,0.0,0.0,71,0.00,,CLR,0.00,VWS V14.01,2013-06-12 05:18:00,
2013-06-12 00:19:00,74.8,64.4,29.84,North,0,0.0,0.0,70,0.00,,CLR,0.00,VWS V14.01,2013-06-12 05:19:00,
2013-06-12 00:22:00,75.0,64.6,29.84,North,0,0.0,0.0,70,0.00,,CLR,0.00,VWS V14.01,2013-06-12 05:22:00,
2013-06-12 00:23:00,74.8,64.8,29.84,North,0,0.0,0.0,71,0.00,,CLR,0.00,VWS V14.01,2013-06-12 05:23:00,
2013-06-12 00:24:00,74.8,64.8,29.84,North,0,0.0,0.0,71,0.00,,CLR,0.00,VWS V14.01,2013-06-12 05:24:00,
2013-06-12 00:26:00,75.0,65.0,29.84,North,0,0.0,0.0,71,0.00,,CLR,0.00,VWS V14.01,2013-06-12 05:26:00,
2013-06-12 00:30:00,75.0,65.0,29.84,North,0,0.0,0.0,71,0.00,,CLR,0.00,VWS V14.01,2013-06-12 05:30:00,
2013-06-12 00:31:00,75.2,65.2,29.84,NNE,22,0.0,0.0,71,0.00,,CLR,0.00,VWS V14.01,2013-06-12 05:31:00,
2013-06-12 00:32:00,75.0,64.6,29.84,SSW,202,0.0,0.0,70,0.00,,CLR,0.00,VWS V14.01,2013-06-12 05:32:00,
2013-06-12 00:35:00,75.2,65.2,29.83,South,180,0.0,0.0,71,0.00,,CLR,0.00,VWS V14.01,2013-06-12 05:35:00,
2013-06-12 00:36:00,75.2,65.2,29.83,South,180,0.0,0.0,71,0.00,,CLR,0.00,VWS V14.01,2013-06-12 05:36:00,
2013-06-12 00:38:00,75.3,65.3,29.83,South,180,0.0,0.0,71,0.00,,CLR,0.00,VWS V14.01,2013-06-12 05:38:00,
2013-06-12 00:40:00,75.3,65.3,29.84,South,180,0.0,0.0,71,0.00,,CLR,0.00,VWS V14.01,2013-06-12 05:40:00,
2013-06-12 00:42:00,75.5,65.4,29.84,South,180,0.0,0.0,71,0.00,,CLR,0.00,VWS V14.01,2013-06-12 05:42:00,
2013-06-12 00:43:00,75.5,65.4,29.84,South,180,0.0,0.0,71,0.00,,CLR,0.00,VWS V14.01,2013-06-12 05:43:00,
2013-06-12 00:44:00,75.5,65.4,29.84,South,180,0.0,0.0,71,0.00,,CLR,0.00,VWS V14.01,2013-06-12 05:44:00,
2013-06-12 00:45:00,75.5,65.4,29.84,South,180,0.0,0.0,71,0.00,,CLR,0.00,VWS V14.01,2013-06-12 05:45:00,
2013-06-12 00:46:00,75.5,65.4,29.83,South,180,0.0,0.0,71,0.00,,CLR,0.00,VWS V14.01,2013-06-12 05:46:00,
2013-06-12 00:49:00,75.7,65.2,29.84,South,180,0.0,0.0,70,0.00,,CLR,0.00,VWS V14.01,2013-06-12 05:49:00,
2013-06-12 00:50:00,75.5,65.0,29.84,South,180,0.0,0.0,70,0.00,,CLR,0.00,VWS V14.01,2013-06-12 05:50:00,
2013-06-12 00:52:00,75.5,65.0,29.84,South,180,0.0,0.0,70,0.00,,CLR,0.00,VWS V14.01,2013-06-12 05:52:00,
2013-06-12 00:54:00,75.7,65.2,29.84,South,180,0.0,0.0,70,0.00,,CLR,0.00,VWS V14.01,2013-06-12 05:54:00,
2013-06-12 00:55:00,75.7,65.2,29.84,South,180,0.0,0.0,70,0.00,,CLR,0.00,VWS V14.01,2013-06-12 05:55:00,
2013-06-12 00:57:00,75.7,65.2,29.84,South,180,0.0,0.0,70,0.00,,CLR,0.00,VWS V14.01,2013-06-12 05:57:00,
2013-06-12 00:59:00,75.5,65.0,29.84,South,180,0.0,0.0,70,0.00,,CLR,0.00,VWS V14.01,2013-06-12 05:59:00,
2013-06-12 01:00:00,75.5,65.0,29.84,South,180,0.0,0.0,70,0.00,,CLR,0.00,VWS V14.01,2013-06-12 06:00:00,
2013-06-12 01:01:00,75.5,65.0,29.84,South,180,0.0,0.0,70,0.00,,CLR,0.00,VWS V14.01,2013-06-12 06:01:00,
2013-06-12 01:03:00,75.3,64.8,29.83,South,180,0.0,0.0,70,0.00,,CLR,0.00,VWS V14.01,2013-06-12 06:03:00,
2013-06-12 01:04:00,75.3,64.8,29.84,South,180,0.0,0.0,70,0.00,,CLR,0.00,VWS V14.01,2013-06-12 06:04:00,
2013-06-12 01:07:00,75.3,65.3,29.83,South,180,0.0,0.0,71,0.00,,CLR,0.00,VWS V14.01,2013-06-12 06:07:00,
2013-06-12 01:08:00,75.2,65.2,29.84,South,180,0.0,0.0,71,0.00,,CLR,0.00,VWS V14.01,2013-06-12 06:08:00,
2013-06-12 01:10:00,75.2,65.2,29.84,South,180,0.0,0.0,71,0.00,,CLR,0.00,VWS V14.01,2013-06-12 06:10:00,
2013-06-12 01:12:00,74.8,64.8,29.84,South,180,0.0,0.0,71,0.00,,CLR,0.00,VWS V14.01,2013-06-12 06:12:00,
2013-06-12 01:13:00,74.8,64.8,29.84,South,180,0.0,0.0,71,0.00,,CLR,0.00,VWS V14.01,2013-06-12 06:13:00,
2013-06-12 01:14:00,74.8,64.8,29.84,South,180,0.0,0.0,71,0.00,,CLR,0.00,VWS V14.01,2013-06-12 06:14:00,
2013-06-12 01:17:00,74.6,65.0,29.84,South,180,0.0,0.0,72,0.00,,CLR,0.00,VWS V14.01,2013-06-12 06:17:00,
2013-06-12 01:19:00,74.6,65.0,29.84,South,180,0.0,0.0,72,0.00,,CLR,0.00,VWS V14.01,2013-06-12 06:19:00,
2013-06-12 01:20:00,74.6,65.0,29.84,South,180,0.0,0.0,72,0.00,,CLR,0.00,VWS V14.01,2013-06-12 06:20:00,
2013-06-12 01:21:00,74.6,65.0,29.84,South,180,0.0,0.0,72,0.00,,CLR,0.00,VWS V14.01,2013-06-12 06:21:00,
2013-06-12 01:22:00,74.4,64.8,29.84,South,180,0.0,0.0,72,0.00,,CLR,0.00,VWS V14.01,2013-06-12 06:22:00,
2013-06-12 01:25:00,74.3,65.1,29.83,SSE,158,0.0,0.0,73,0.00,,CLR,0.00,VWS V14.01,2013-06-12 06:25:00,
2013-06-12 01:27:00,74.3,65.1,29.84,South,180,0.0,0.0,73,0.00,,CLR,0.00,VWS V14.01,2013-06-12 06:27:00,
2013-06-12 01:28:00,74.3,65.1,29.84,SSW,202,0.0,0.0,73,0.00,,CLR,0.00,VWS V14.01,2013-06-12 06:28:00,
2013-06-12 01:32:00,74.1,65.7,29.84,South,180,0.0,0.0,75,0.00,,CLR,0.00,VWS V14.01,2013-06-12 06:32:00,
2013-06-12 01:33:00,74.1,65.7,29.84,South,180,0.0,0.0,75,0.00,,CLR,0.00,VWS V14.01,2013-06-12 06:33:00,
2013-06-12 01:34:00,74.1,65.7,29.84,South,180,0.0,0.0,75,0.00,,CLR,0.00,VWS V14.01,2013-06-12 06:34:00,
2013-06-12 01:35:00,74.1,65.7,29.84,South,180,0.0,0.0,75,0.00,,CLR,0.00,VWS V14.01,2013-06-12 06:35:00,
2013-06-12 01:38:00,73.9,65.5,29.84,South,180,0.0,0.0,75,0.00,,CLR,0.00,VWS V14.01,2013-06-12 06:38:00,
2013-06-12 01:40:00,73.7,65.7,29.84,South,180,0.0,0.0,76,0.00,,CLR,0.00,VWS V14.01,2013-06-12 06:40:00,
2013-06-12 01:41:00,74.1,66.1,29.84,South,180,0.0,0.0,76,0.00,,CLR,0.00,VWS V14.01,2013-06-12 06:41:00,
2013-06-12 01:43:00,73.7,65.7,29.84,South,180,0.0,0.0,76,0.00,,CLR,0.00,VWS V14.01,2013-06-12 06:43:00,
2013-06-12 01:44:00,73.7,65.7,29.84,South,180,0.0,0.0,76,0.00,,CLR,0.00,VWS V14.01,2013-06-12 06:44:00,
2013-06-12 01:45:00,73.7,65.7,29.84,South,180,0.0,0.0,76,0.00,,CLR,0.00,VWS V14.01,2013-06-12 06:45:00,
2013-06-12 01:48:00,73.7,65.7,29.84,South,180,0.0,0.0,76,0.00,,CLR,0.00,VWS V14.01,2013-06-12 06:48:00,
2013-06-12 01:49:00,73.7,65.7,29.84,South,180,0.0,0.0,76,0.00,,CLR,0.00,VWS V14.01,2013-06-12 06:49:00,
2013-06-12 01:50:00,73.5,65.5,29.84,South,180,0.0,0.0,76,0.00,,CLR,0.00,VWS V14.01,2013-06-12 06:50:00,
2013-06-12 01:51:00,73.5,65.5,29.84,South,180,0.0,0.0,76,0.00,,CLR,0.00,VWS V14.01,2013-06-12 06:51:00,
2013-06-12 01:52:00,73.5,65.5,29.84,South,180,0.0,0.0,76,0.00,,CLR,0.00,VWS V14.01,2013-06-12 06:52:00,
2013-06-12 01:54:00,73.4,65.4,29.84,South,180,0.0,0.0,76,0.00,,CLR,0.00,VWS V14.01,2013-06-12 06:54:00,
2013-06-12 01:55:00,73.4,65.4,29.83,South,180,0.0,0.0,76,0.00,,CLR,0.00,VWS V14.01,2013-06-12 06:55:00,
2013-06-12 01:56:00,73.2,65.6,29.84,South,180,0.0,0.0,77,0.00,,CLR,0.00,VWS V14.01,2013-06-12 06:56:00,
2013-06-12 01:58:00,73.2,65.6,29.83,South,180,0.0,0.0,77,0.00,,CLR,0.00,VWS V14.01,2013-06-12 06:58:00,
2013-06-12 01:59:00,73.2,65.6,29.83,South,180,0.0,0.0,77,0.00,,CLR,0.00,VWS V14.01,2013-06-12 06:59:00,
2013-06-12 02:03:00,73.2,65.6,29.83,South,180,0.0,0.0,77,0.00,,CLR,0.00,VWS V14.01,2013-06-12 07:03:00,
2013-06-12 02:04:00,73.0,65.4,29.84,South,180,0.0,0.0,77,0.00,,CLR,0.00,VWS V14.01,2013-06-12 07:04:00,
2013-06-12 02:05:00,73.0,65.4,29.84,South,180,0.0,0.0,77,0.00,,CLR,0.00,VWS V14.01,2013-06-12 07:05:00,
2013-06-12 02:08:00,73.0,65.4,29.84,South,180,0.0,0.0,77,0.00,,CLR,0.00,VWS V14.01,2013-06-12 07:08:00,
2013-06-12 02:10:00,73.0,65.4,29.84,South,180,0.0,0.0,77,0.00,,CLR,0.00,VWS V14.01,2013-06-12 07:10:00,
2013-06-12 02:11:00,72.8,65.2,29.84,South,180,0.0,0.0,77,0.00,,CLR,0.00,VWS V14.01,2013-06-12 07:11:00,
2013-06-12 02:12:00,72.8,65.6,29.84,South,180,0.0,0.0,78,0.00,,CLR,0.00,VWS V14.01,2013-06-12 07:12:00,
2013-06-12 02:16:00,72.6,65.3,29.84,East,90,0.0,0.0,78,0.00,,CLR,0.00,VWS V14.01,2013-06-12 07:16:00,
2013-06-12 02:17:00,72.6,65.3,29.85,ENE,68,0.0,0.0,78,0.00,,CLR,0.00,VWS V14.01,2013-06-12 07:17:00,
2013-06-12 02:18:00,72.8,65.6,29.85,ENE,68,0.0,0.0,78,0.00,,CLR,0.00,VWS V14.01,2013-06-12 07:18:00,
2013-06-12 02:20:00,72.5,65.3,29.84,ENE,68,0.0,0.0,78,0.00,,CLR,0.00,VWS V14.01,2013-06-12 07:20:00,
2013-06-12 02:22:00,72.6,65.3,29.85,NNE,22,0.0,2.2,78,0.00,,CLR,0.00,VWS V14.01,2013-06-12 07:22:00,
2013-06-12 02:23:00,72.6,65.3,29.85,NNE,22,0.0,0.0,78,0.00,,CLR,0.00,VWS V14.01,2013-06-12 07:23:00,
2013-06-12 02:26:00,72.5,65.3,29.85,NNE,22,0.0,0.0,78,0.00,,CLR,0.00,VWS V14.01,2013-06-12 07:26:00,
2013-06-12 02:27:00,72.5,65.3,29.85,NNE,22,0.0,0.0,78,0.00,,CLR,0.00,VWS V14.01,2013-06-12 07:27:00,
2013-06-12 02:28:00,72.5,65.6,29.85,NE,45,0.0,0.0,79,0.00,,CLR,0.00,VWS V14.01,2013-06-12 07:28:00,
2013-06-12 02:30:00,72.5,65.6,29.85,NE,45,0.0,0.0,79,0.00,,CLR,0.00,VWS V14.01,2013-06-12 07:30:00,
2013-06-12 02:31:00,72.5,65.6,29.85,NE,45,0.0,0.0,79,0.00,,CLR,0.00,VWS V14.01,2013-06-12 07:31:00,
2013-06-12 02:32:00,72.5,65.6,29.85,NE,45,0.0,0.0,79,0.00,,CLR,0.00,VWS V14.01,2013-06-12 07:32:00,
2013-06-12 02:33:00,72.5,65.6,29.85,NE,45,0.0,0.0,79,0.00,,CLR,0.00,VWS V14.01,2013-06-12 07:33:00,
2013-06-12 02:35:00,72.5,65.6,29.85,NE,45,0.0,0.0,79,0.00,,CLR,0.00,VWS V14.01,2013-06-12 07:35:00,
2013-06-12 02:37:00,72.5,65.6,29.85,NNE,22,0.0,0.0,79,0.00,,CLR,0.00,VWS V14.01,2013-06-12 07:37:00,
2013-06-12 02:38:00,72.5,65.6,29.85,NE,45,0.0,0.0,79,0.00,,CLR,0.00,VWS V14.01,2013-06-12 07:38:00,
2013-06-12 02:40:00,72.5,65.6,29.85,NE,45,0.0,0.0,79,0.00,,CLR,0.00,VWS V14.01,2013-06-12 07:40:00,
2013-06-12 02:43:00,72.5,66.0,29.85,NE,45,0.0,0.0,80,0.00,,CLR,0.00,VWS V14.01,2013-06-12 07:43:00,
2013-06-12 02:44:00,72.5,66.0,29.85,NE,45,0.0,0.0,80,0.00,,CLR,0.00,VWS V14.01,2013-06-12 07:44:00,
2013-06-12 02:47:00,72.5,66.0,29.85,NNE,22,0.0,0.0,80,0.00,,CLR,0.00,VWS V14.01,2013-06-12 07:47:00,
2013-06-12 02:48:00,72.5,66.0,29.85,NE,45,0.0,0.0,80,0.00,,CLR,0.00,VWS V14.01,2013-06-12 07:48:00,
2013-06-12 02:50:00,72.6,66.1,29.85,NE,45,0.0,0.0,80,0.00,,CLR,0.00,VWS V14.01,2013-06-12 07:50:00,
2013-06-12 02:52:00,72.5,66.0,29.85,ENE,68,2.2,2.2,80,0.00,,CLR,0.00,VWS V14.01,2013-06-12 07:52:00,
2013-06-12 02:53:00,72.6,66.1,29.85,NNE,22,0.0,2.2,80,0.00,,CLR,0.00,VWS V14.01,2013-06-12 07:53:00,
2013-06-12 02:55:00,72.5,66.0,29.85,NNE,22,0.0,0.0,80,0.00,,CLR,0.00,VWS V14.01,2013-06-12 07:55:00,
2013-06-12 02:57:00,72.5,66.0,29.85,ENE,68,0.0,0.0,80,0.00,,CLR,0.00,VWS V14.01,2013-06-12 07:57:00,
2013-06-12 02:58:00,72.5,66.0,29.85,ENE,68,0.0,0.0,80,0.00,,CLR,0.00,VWS V14.01,2013-06-12 07:58:00,
2013-06-12 02:59:00,72.6,66.1,29.85,ENE,68,0.0,0.0,80,0.00,,CLR,0.00,VWS V14.01,2013-06-12 07:59:00,
2013-06-12 03:02:00,72.6,66.1,29.85,NNE,22,0.0,0.0,80,0.00,,CLR,0.00,VWS V14.01,2013-06-12 08:02:00,
2013-06-12 03:03:00,72.6,66.1,29.85,North,0,0.0,0.0,80,0.00,,CLR,0.00,VWS V14.01,2013-06-12 08:03:00,
2013-06-12 03:06:00,72.8,66.3,29.85,NNW,338,0.0,0.0,80,0.00,,CLR,0.00,VWS V14.01,2013-06-12 08:06:00,
2013-06-12 03:10:00,72.8,66.3,29.85,NNE,22,0.0,0.0,80,0.00,,CLR,0.00,VWS V14.01,2013-06-12 08:10:00,
2013-06-12 03:11:00,72.6,66.1,29.85,NNE,22,0.0,0.0,80,0.00,,CLR,0.00,VWS V14.01,2013-06-12 08:11:00,
2013-06-12 03:12:00,72.8,66.3,29.85,NNE,22,0.0,0.0,80,0.00,,CLR,0.00,VWS V14.01,2013-06-12 08:12:00,
2013-06-12 03:14:00,72.5,66.0,29.85,ENE,68,0.0,0.0,80,0.00,,CLR,0.00,VWS V14.01,2013-06-12 08:14:00,
2013-06-12 03:15:00,72.5,66.0,29.85,ENE,68,0.0,0.0,80,0.00,,CLR,0.00,VWS V14.01,2013-06-12 08:15:00,
2013-06-12 03:17:00,72.5,66.0,29.85,ENE,68,0.0,0.0,80,0.00,,CLR,0.00,VWS V14.01,2013-06-12 08:17:00,
2013-06-12 03:18:00,72.6,66.1,29.85,ENE,68,0.0,0.0,80,0.00,,CLR,0.00,VWS V14.01,2013-06-12 08:18:00,
2013-06-12 03:20:00,72.5,66.0,29.84,ENE,68,0.0,0.0,80,0.00,,CLR,0.00,VWS V14.01,2013-06-12 08:20:00,
2013-06-12 03:22:00,72.5,65.6,29.84,ENE,68,0.0,0.0,79,0.00,,CLR,0.00,VWS V14.01,2013-06-12 08:22:00,
2013-06-12 03:23:00,72.5,65.6,29.84,ENE,68,0.0,0.0,79,0.00,,CLR,0.00,VWS V14.01,2013-06-12 08:23:00,
2013-06-12 03:24:00,72.5,65.6,29.84,ENE,68,0.0,0.0,79,0.00,,CLR,0.00,VWS V14.01,2013-06-12 08:24:00,
2013-06-12 03:29:00,72.5,65.6,29.84,ENE,68,0.0,0.0,79,0.00,,CLR,0.00,VWS V14.01,2013-06-12 08:29:00,
2013-06-12 03:30:00,72.5,66.0,29.84,ENE,68,0.0,0.0,80,0.00,,CLR,0.00,VWS V14.01,2013-06-12 08:30:00,
2013-06-12 03:32:00,72.5,66.0,29.84,ENE,68,0.0,0.0,80,0.00,,CLR,0.00,VWS V14.01,2013-06-12 08:32:00,
2013-06-12 03:34:00,72.3,66.2,29.84,ENE,68,0.0,0.0,81,0.00,,CLR,0.00,VWS V14.01,2013-06-12 08:34:00,
2013-06-12 03:36:00,72.3,66.2,29.84,ENE,68,0.0,0.0,81,0.00,,CLR,0.00,VWS V14.01,2013-06-12 08:36:00,
2013-06-12 03:38:00,72.3,66.2,29.83,ENE,68,0.0,0.0,81,0.00,,CLR,0.00,VWS V14.01,2013-06-12 08:38:00,
2013-06-12 03:40:00,72.3,65.4,29.84,ENE,68,0.0,0.0,79,0.00,,CLR,0.00,VWS V14.01,2013-06-12 08:40:00,
2013-06-12 03:41:00,72.5,66.3,29.83,ENE,68,0.0,0.0,81,0.00,,CLR,0.00,VWS V14.01,2013-06-12 08:41:00,
2013-06-12 03:42:00,72.3,65.8,29.83,ENE,68,0.0,0.0,80,0.00,,CLR,0.00,VWS V14.01,2013-06-12 08:42:00,
2013-06-12 03:44:00,72.5,65.6,29.83,ENE,68,0.0,0.0,79,0.00,,CLR,0.00,VWS V14.01,2013-06-12 08:44:00,
2013-06-12 03:45:00,72.5,65.6,29.83,ENE,68,0.0,0.0,79,0.00,,CLR,0.00,VWS V14.01,2013-06-12 08:45:00,
2013-06-12 03:48:00,72.5,66.3,29.83,ENE,68,0.0,0.0,81,0.00,,CLR,0.00,VWS V14.01,2013-06-12 08:48:00,
2013-06-12 03:50:00,72.3,66.2,29.83,ENE,68,0.0,0.0,81,0.00,,CLR,0.00,VWS V14.01,2013-06-12 08:50:00,
2013-06-12 03:52:00,72.3,66.2,29.83,ENE,68,0.0,0.0,81,0.00,,CLR,0.00,VWS V14.01,2013-06-12 08:52:00,
2013-06-12 03:54:00,72.3,66.2,29.83,ENE,68,0.0,0.0,81,0.00,,CLR,0.00,VWS V14.01,2013-06-12 08:54:00,
2013-06-12 03:56:00,72.1,65.9,29.83,SSE,158,0.0,0.0,81,0.00,,CLR,0.00,VWS V14.01,2013-06-12 08:56:00,
2013-06-12 03:58:00,72.1,65.9,29.83,SSE,158,0.0,0.0,81,0.00,,CLR,0.00,VWS V14.01,2013-06-12 08:58:00,
2013-06-12 04:00:00,72.1,65.9,29.83,SSE,158,0.0,0.0,81,0.00,,CLR,0.00,VWS V14.01,2013-06-12 09:00:00,
2013-06-12 04:01:00,72.1,65.9,29.83,SSE,158,0.0,0.0,81,0.00,,CLR,0.00,VWS V14.01,2013-06-12 09:01:00,
2013-06-12 04:02:00,72.1,65.9,29.83,SSE,158,0.0,0.0,81,0.00,,CLR,0.00,VWS V14.01,2013-06-12 09:02:00,
2013-06-12 04:04:00,72.1,65.9,29.83,SSE,158,0.0,0.0,81,0.00,,CLR,0.00,VWS V14.01,2013-06-12 09:04:00,
2013-06-12 04:05:00,72.1,65.9,29.83,SSE,158,0.0,0.0,81,0.00,,CLR,0.00,VWS V14.01,2013-06-12 09:05:00,
2013-06-12 04:06:00,72.1,65.9,29.83,SSE,158,0.0,0.0,81,0.00,,CLR,0.00,VWS V14.01,2013-06-12 09:06:00,
2013-06-12 04:07:00,72.1,65.9,29.83,SSE,158,0.0,0.0,81,0.00,,CLR,0.00,VWS V14.01,2013-06-12 09:07:00,
2013-06-12 04:08:00,71.9,65.8,29.83,SSE,158,0.0,0.0,81,0.00,,CLR,0.00,VWS V14.01,2013-06-12 09:08:00,
2013-06-12 04:10:00,72.1,65.9,29.83,SSE,158,0.0,0.0,81,0.00,,CLR,0.00,VWS V14.01,2013-06-12 09:10:00,
2013-06-12 04:12:00,71.9,65.8,29.83,SSE,158,0.0,0.0,81,0.00,,CLR,0.00,VWS V14.01,2013-06-12 09:12:00,
2013-06-12 04:14:00,71.9,65.8,29.83,SSE,158,0.0,0.0,81,0.00,,CLR,0.00,VWS V14.01,2013-06-12 09:14:00,
2013-06-12 04:16:00,72.1,66.3,29.82,SSE,158,0.0,0.0,82,0.00,,CLR,0.00,VWS V14.01,2013-06-12 09:16:00,
2013-06-12 04:17:00,71.9,66.1,29.82,SSE,158,0.0,0.0,82,0.00,,CLR,0.00,VWS V14.01,2013-06-12 09:17:00,
2013-06-12 04:18:00,71.9,66.1,29.82,SSE,158,0.0,0.0,82,0.00,,CLR,0.00,VWS V14.01,2013-06-12 09:18:00,
2013-06-12 04:21:00,71.9,66.1,29.81,SSE,158,0.0,0.0,82,0.00,,CLR,0.00,VWS V14.01,2013-06-12 09:21:00,
2013-06-12 04:22:00,71.9,66.1,29.81,SSE,158,0.0,0.0,82,0.00,,CLR,0.00,VWS V14.01,2013-06-12 09:22:00,
2013-06-12 04:23:00,71.9,66.1,29.81,SSE,158,0.0,0.0,82,0.00,,CLR,0.00,VWS V14.01,2013-06-12 09:23:00,
2013-06-12 04:27:00,71.9,66.1,29.82,SSE,158,0.0,0.0,82,0.00,,CLR,0.00,VWS V14.01,2013-06-12 09:27:00,
2013-06-12 04:30:00,72.1,66.3,29.82,South,180,0.0,0.0,82,0.00,,CLR,0.00,VWS V14.01,2013-06-12 09:30:00,
2013-06-12 04:31:00,72.1,66.3,29.82,South,180,0.0,0.0,82,0.00,,CLR,0.00,VWS V14.01,2013-06-12 09:31:00,
2013-06-12 04:34:00,71.9,66.1,29.81,South,180,0.0,0.0,82,0.00,,CLR,0.00,VWS V14.01,2013-06-12 09:34:00,
2013-06-12 04:36:00,72.1,66.3,29.80,SSE,158,0.0,0.0,82,0.00,,CLR,0.00,VWS V14.01,2013-06-12 09:36:00,
2013-06-12 04:39:00,72.1,66.3,29.80,South,180,0.0,0.0,82,0.00,,CLR,0.00,VWS V14.01,2013-06-12 09:39:00,
2013-06-12 04:41:00,72.1,66.3,29.81,South,180,0.0,0.0,82,0.00,,CLR,0.00,VWS V14.01,2013-06-12 09:41:00,
2013-06-12 04:42:00,72.1,66.3,29.81,South,180,0.0,0.0,82,0.00,,CLR,0.00,VWS V14.01,2013-06-12 09:42:00,
2013-06-12 04:43:00,72.3,66.5,29.81,South,180,0.0,0.0,82,0.00,,CLR,0.00,VWS V14.01,2013-06-12 09:43:00,
2013-06-12 04:44:00,72.3,66.5,29.81,South,180,0.0,0.0,82,0.00,,CLR,0.00,VWS V14.01,2013-06-12 09:44:00,
2013-06-12 04:47:00,72.1,66.3,29.80,SE,135,0.0,0.0,82,0.00,,CLR,0.00,VWS V14.01,2013-06-12 09:47:00,
2013-06-12 04:48:00,72.1,66.3,29.81,SSE,158,0.0,0.0,82,0.00,,CLR,0.00,VWS V14.01,2013-06-12 09:48:00,
2013-06-12 04:52:00,72.3,66.5,29.81,SSE,158,0.0,0.0,82,0.00,,CLR,0.00,VWS V14.01,2013-06-12 09:52:00,
2013-06-12 04:54:00,72.1,66.3,29.81,South,180,0.0,0.0,82,0.00,,CLR,0.00,VWS V14.01,2013-06-12 09:54:00,
2013-06-12 04:55:00,72.1,66.3,29.81,South,180,0.0,0.0,82,0.00,,CLR,0.00,VWS V14.01,2013-06-12 09:55:00,
2013-06-12 04:58:00,72.1,66.3,29.81,South,180,0.0,0.0,82,0.00,,CLR,0.00,VWS V14.01,2013-06-12 09:58:00,
2013-06-12 04:59:00,72.1,66.3,29.81,South,180,0.0,0.0,82,0.00,,CLR,0.00,VWS V14.01,2013-06-12 09:59:00,
2013-06-12 05:00:00,72.1,66.3,29.82,South,180,0.0,0.0,82,0.00,,CLR,0.00,VWS V14.01,2013-06-12 10:00:00,
2013-06-12 05:03:00,72.1,66.3,29.82,South,180,0.0,0.0,82,0.00,,CLR,0.00,VWS V14.01,2013-06-12 10:03:00,
2013-06-12 05:04:00,72.1,66.3,29.83,South,180,0.0,0.0,82,0.00,,CLR,0.00,VWS V14.01,2013-06-12 10:04:00,
2013-06-12 05:05:00,72.1,66.3,29.83,South,180,0.0,0.0,82,0.00,,CLR,0.00,VWS V14.01,2013-06-12 10:05:00,
2013-06-12 05:07:00,72.3,66.5,29.83,South,180,0.0,0.0,82,0.00,,CLR,0.00,VWS V14.01,2013-06-12 10:07:00,
2013-06-12 05:08:00,72.1,66.3,29.83,South,180,0.0,0.0,82,0.00,,CLR,0.00,VWS V14.01,2013-06-12 10:08:00,
2013-06-12 05:10:00,72.1,66.3,29.83,South,180,0.0,0.0,82,0.00,,CLR,0.00,VWS V14.01,2013-06-12 10:10:00,
2013-06-12 05:12:00,72.1,66.3,29.84,South,180,0.0,0.0,82,0.00,,CLR,0.00,VWS V14.01,2013-06-12 10:12:00,
2013-06-12 05:14:00,72.1,66.3,29.84,South,180,0.0,0.0,82,0.00,,CLR,0.00,VWS V14.01,2013-06-12 10:14:00,
2013-06-12 05:15:00,72.1,66.3,29.84,South,180,0.0,0.0,82,0.00,,CLR,0.00,VWS V14.01,2013-06-12 10:15:00,
2013-06-12 05:17:00,71.9,66.1,29.84,South,180,0.0,0.0,82,0.00,,CLR,0.00,VWS V14.01,2013-06-12 10:17:00,
2013-06-12 05:19:00,71.9,66.1,29.83,South,180,0.0,0.0,82,0.00,,CLR,0.00,VWS V14.01,2013-06-12 10:19:00,
2013-06-12 05:20:00,71.9,66.1,29.83,South,180,0.0,0.0,82,0.00,,CLR,0.00,VWS V14.01,2013-06-12 10:20:00,
2013-06-12 05:23:00,71.9,66.1,29.84,South,180,0.0,0.0,82,0.00,,CLR,0.00,VWS V14.01,2013-06-12 10:23:00,
2013-06-12 05:24:00,71.9,66.1,29.84,South,180,0.0,0.0,82,0.00,,CLR,0.00,VWS V14.01,2013-06-12 10:24:00,
2013-06-12 05:25:00,71.9,66.1,29.85,South,180,0.0,0.0,82,0.00,,CLR,0.00,VWS V14.01,2013-06-12 10:25:00,
2013-06-12 05:26:00,71.9,66.1,29.85,South,180,0.0,0.0,82,0.00,,CLR,0.00,VWS V14.01,2013-06-12 10:26:00,
2013-06-12 05:27:00,71.9,66.1,29.85,South,180,0.0,0.0,82,0.00,,CLR,0.00,VWS V14.01,2013-06-12 10:27:00,
2013-06-12 05:30:00,71.9,66.1,29.85,South,180,0.0,0.0,82,0.00,,CLR,0.00,VWS V14.01,2013-06-12 10:30:00,
2013-06-12 05:33:00,71.9,66.1,29.85,South,180,0.0,0.0,82,0.00,,CLR,0.00,VWS V14.01,2013-06-12 10:33:00,
2013-06-12 05:34:00,71.9,66.1,29.86,South,180,0.0,0.0,82,0.00,,CLR,0.00,VWS V14.01,2013-06-12 10:34:00,
2013-06-12 05:38:00,71.9,66.1,29.86,South,180,0.0,0.0,82,0.00,,CLR,0.00,VWS V14.01,2013-06-12 10:38:00,
2013-06-12 05:39:00,71.9,66.1,29.85,South,180,0.0,0.0,82,0.00,,CLR,0.00,VWS V14.01,2013-06-12 10:39:00,
2013-06-12 05:40:00,71.9,66.1,29.86,South,180,0.0,0.0,82,0.00,,CLR,0.00,VWS V14.01,2013-06-12 10:40:00,
2013-06-12 05:44:00,71.9,66.1,29.86,South,180,0.0,0.0,82,0.00,,CLR,0.00,VWS V14.01,2013-06-12 10:44:00,
2013-06-12 05:46:00,71.9,66.1,29.86,South,180,0.0,0.0,82,0.00,,CLR,0.00,VWS V14.01,2013-06-12 10:46:00,
2013-06-12 05:47:00,71.9,66.1,29.86,South,180,0.0,0.0,82,0.00,,CLR,0.00,VWS V14.01,2013-06-12 10:47:00,
2013-06-12 05:50:00,71.9,66.1,29.86,South,180,0.0,0.0,82,0.00,,CLR,0.00,VWS V14.01,2013-06-12 10:50:00,
2013-06-12 05:51:00,71.9,66.1,29.87,South,180,0.0,0.0,82,0.00,,CLR,0.00,VWS V14.01,2013-06-12 10:51:00,
2013-06-12 05:56:00,71.7,65.9,29.86,South,180,0.0,0.0,82,0.00,,CLR,0.00,VWS V14.01,2013-06-12 10:56:00,
2013-06-12 05:57:00,71.7,65.9,29.87,South,180,0.0,0.0,82,0.00,,CLR,0.00,VWS V14.01,2013-06-12 10:57:00,
2013-06-12 05:58:00,71.7,65.9,29.86,South,180,0.0,0.0,82,0.00,,CLR,0.00,VWS V14.01,2013-06-12 10:58:00,
2013-06-12 06:01:00,71.7,65.9,29.86,South,180,0.0,0.0,82,0.00,,CLR,0.00,VWS V14.01,2013-06-12 11:01:00,
2013-06-12 06:02:00,71.7,65.9,29.87,South,180,0.0,0.0,82,0.00,,CLR,0.00,VWS V14.01,2013-06-12 11:02:00,
2013-06-12 06:04:00,71.7,65.9,29.87,South,180,0.0,0.0,82,0.00,,CLR,0.00,VWS V14.01,2013-06-12 11:04:00,
2013-06-12 06:07:00,71.7,65.9,29.87,South,180,0.0,0.0,82,0.00,,CLR,0.00,VWS V14.01,2013-06-12 11:07:00,
2013-06-12 06:08:00,71.7,66.3,29.87,South,180,0.0,0.0,83,0.00,,CLR,0.00,VWS V14.01,2013-06-12 11:08:00,
2013-06-12 06:09:00,71.7,65.9,29.86,South,180,0.0,0.0,82,0.00,,CLR,0.00,VWS V14.01,2013-06-12 11:09:00,
2013-06-12 06:10:00,71.7,66.3,29.86,South,180,0.0,0.0,83,0.00,,CLR,0.00,VWS V14.01,2013-06-12 11:10:00,
2013-06-12 06:11:00,71.7,66.3,29.86,South,180,0.0,0.0,83,0.00,,CLR,0.00,VWS V14.01,2013-06-12 11:11:00,
2013-06-12 06:13:00,71.7,66.3,29.86,South,180,0.0,0.0,83,0.00,,CLR,0.00,VWS V14.01,2013-06-12 11:13:00,
2013-06-12 06:14:00,71.7,66.3,29.86,South,180,0.0,0.0,83,0.00,,CLR,0.00,VWS V14.01,2013-06-12 11:14:00,
2013-06-12 06:15:00,71.7,66.3,29.86,South,180,0.0,0.0,83,0.00,,CLR,0.00,VWS V14.01,2013-06-12 11:15:00,
2013-06-12 06:17:00,71.7,66.3,29.87,South,180,0.0,0.0,83,0.00,,CLR,0.00,VWS V14.01,2013-06-12 11:17:00,
2013-06-12 06:18:00,71.7,66.3,29.86,South,180,0.0,0.0,83,0.00,,CLR,0.00,VWS V14.01,2013-06-12 11:18:00,
2013-06-12 06:20:00,71.7,66.3,29.86,South,180,0.0,0.0,83,0.00,,CLR,0.00,VWS V14.01,2013-06-12 11:20:00,
2013-06-12 06:21:00,71.7,66.3,29.86,South,180,0.0,0.0,83,0.00,,CLR,0.00,VWS V14.01,2013-06-12 11:21:00,
2013-06-12 06:24:00,71.7,66.3,29.86,SE,135,0.0,0.0,83,0.00,,CLR,0.00,VWS V14.01,2013-06-12 11:24:00,
2013-06-12 06:26:00,71.7,66.3,29.87,SE,135,0.0,0.0,83,0.00,,CLR,0.00,VWS V14.01,2013-06-12 11:26:00,
2013-06-12 06:27:00,71.7,66.3,29.87,SE,135,0.0,0.0,83,0.00,,CLR,0.00,VWS V14.01,2013-06-12 11:27:00,
2013-06-12 06:30:00,71.7,66.3,29.86,SE,135,0.0,0.0,83,0.00,,CLR,0.00,VWS V14.01,2013-06-12 11:30:00,
2013-06-12 06:31:00,71.7,66.3,29.86,SE,135,0.0,0.0,83,0.00,,CLR,0.00,VWS V14.01,2013-06-12 11:31:00,
2013-06-12 06:33:00,71.7,66.3,29.86,SE,135,0.0,0.0,83,0.00,,CLR,0.00,VWS V14.01,2013-06-12 11:33:00,
2013-06-12 06:34:00,71.7,66.3,29.86,SE,135,0.0,0.0,83,0.00,,CLR,0.00,VWS V14.01,2013-06-12 11:34:00,
2013-06-12 06:36:00,71.7,66.3,29.86,SE,135,0.0,0.0,83,0.00,,CLR,0.00,VWS V14.01,2013-06-12 11:36:00,
2013-06-12 06:38:00,71.7,66.3,29.86,SE,135,0.0,0.0,83,0.00,,CLR,0.00,VWS V14.01,2013-06-12 11:38:00,
2013-06-12 06:39:00,71.7,66.3,29.86,SE,135,0.0,0.0,83,0.00,,CLR,0.00,VWS V14.01,2013-06-12 11:39:00,
2013-06-12 06:41:00,71.7,66.3,29.87,SE,135,0.0,0.0,83,0.00,,CLR,0.00,VWS V14.01,2013-06-12 11:41:00,
2013-06-12 06:42:00,71.7,66.3,29.86,SE,135,0.0,0.0,83,0.00,,CLR,0.00,VWS V14.01,2013-06-12 11:42:00,
2013-06-12 06:43:00,71.7,66.6,29.86,NE,45,0.0,0.0,84,0.00,,CLR,0.00,VWS V14.01,2013-06-12 11:43:00,
2013-06-12 06:46:00,71.7,66.3,29.87,NNE,22,0.0,0.0,83,0.00,,CLR,0.00,VWS V14.01,2013-06-12 11:46:00,
2013-06-12 06:47:00,71.7,66.3,29.87,NNE,22,0.0,0.0,83,0.00,,CLR,0.00,VWS V14.01,2013-06-12 11:47:00,
2013-06-12 06:48:00,71.9,66.8,29.87,NNE,22,0.0,0.0,84,0.00,,CLR,0.00,VWS V14.01,2013-06-12 11:48:00,
2013-06-12 06:51:00,71.9,66.8,29.88,NNE,22,0.0,0.0,84,0.00,,CLR,0.00,VWS V14.01,2013-06-12 11:51:00,
2013-06-12 06:52:00,71.9,66.8,29.88,NNE,22,0.0,0.0,84,0.00,,CLR,0.00,VWS V14.01,2013-06-12 11:52:00,
2013-06-12 06:53:00,71.9,66.8,29.88,NNE,22,0.0,0.0,84,0.00,,CLR,0.00,VWS V14.01,2013-06-12 11:53:00,
2013-06-12 06:54:00,71.9,66.8,29.88,NNW,338,0.0,0.0,84,0.00,,CLR,0.00,VWS V14.01,2013-06-12 11:54:00,
2013-06-12 06:57:00,71.9,66.8,29.88,NE,45,0.0,0.0,84,0.00,,CLR,0.00,VWS V14.01,2013-06-12 11:57:00,
2013-06-12 06:59:00,71.9,66.8,29.88,NE,45,0.0,0.0,84,0.00,,CLR,0.00,VWS V14.01,2013-06-12 11:59:00,
2013-06-12 07:01:00,71.9,66.8,29.88,NE,45,0.0,0.0,84,0.00,,CLR,0.00,VWS V14.01,2013-06-12 12:01:00,
2013-06-12 07:02:00,72.1,67.0,29.88,NE,45,0.0,0.0,84,0.00,,CLR,0.00,VWS V14.01,2013-06-12 12:02:00,
2013-06-12 07:04:00,71.9,66.8,29.88,NE,45,0.0,0.0,84,0.00,,CLR,0.00,VWS V14.01,2013-06-12 12:04:00,
2013-06-12 07:05:00,72.1,66.7,29.88,NNW,338,0.0,0.0,83,0.00,,CLR,0.00,VWS V14.01,2013-06-12 12:05:00,
2013-06-12 07:07:00,72.1,66.7,29.88,NNW,338,0.0,0.0,83,0.00,,CLR,0.00,VWS V14.01,2013-06-12 12:07:00,
2013-06-12 07:09:00,72.3,66.8,29.88,NNW,338,0.0,0.0,83,0.00,,CLR,0.00,VWS V14.01,2013-06-12 12:09:00,
2013-06-12 07:10:00,72.3,67.2,29.88,NNW,338,0.0,0.0,84,0.00,,CLR,0.00,VWS V14.01,2013-06-12 12:10:00,
2013-06-12 07:11:00,72.3,67.2,29.88,NNW,338,0.0,0.0,84,0.00,,CLR,0.00,VWS V14.01,2013-06-12 12:11:00,
2013-06-12 07:12:00,72.5,66.7,29.87,NNW,338,0.0,0.0,82,0.00,,CLR,0.00,VWS V14.01,2013-06-12 12:12:00,
2013-06-12 07:15:00,72.5,66.3,29.88,ENE,68,0.0,0.0,81,0.00,,CLR,0.00,VWS V14.01,2013-06-12 12:15:00,
2013-06-12 07:16:00,72.5,66.3,29.88,NE,45,0.0,0.0,81,0.00,,CLR,0.00,VWS V14.01,2013-06-12 12:16:00,
2013-06-12 07:17:00,72.5,66.3,29.88,NE,45,0.0,0.0,81,0.00,,CLR,0.00,VWS V14.01,2013-06-12 12:17:00,
2013-06-12 07:18:00,72.5,66.3,29.88,NE,45,0.0,0.0,81,0.00,,CLR,0.00,VWS V14.01,2013-06-12 12:18:00,
2013-06-12 07:22:00,72.5,66.3,29.87,NE,45,0.0,0.0,81,0.00,,CLR,0.00,VWS V14.01,2013-06-12 12:22:00,
2013-06-12 07:24:00,72.6,66.4,29.87,NE,45,0.0,0.0,81,0.00,,CLR,0.00,VWS V14.01,2013-06-12 12:24:00,
2013-06-12 07:26:00,72.6,66.4,29.87,NE,45,0.0,0.0,81,0.00,,CLR,0.00,VWS V14.01,2013-06-12 12:26:00,
2013-06-12 07:28:00,72.5,66.3,29.87,NNE,22,0.0,0.0,81,0.00,,CLR,0.00,VWS V14.01,2013-06-12 12:28:00,
2013-06-12 07:29:00,72.6,66.4,29.87,NE,45,0.0,0.0,81,0.00,,CLR,0.00,VWS V14.01,2013-06-12 12:29:00,
2013-06-12 07:30:00,72.6,66.4,29.87,North,0,0.0,0.0,81,0.00,,CLR,0.00,VWS V14.01,2013-06-12 12:30:00,
2013-06-12 07:32:00,72.6,66.1,29.87,NNE,22,0.0,0.0,80,0.00,,CLR,0.00,VWS V14.01,2013-06-12 12:32:00,
2013-06-12 07:34:00,72.8,66.3,29.88,North,0,0.0,0.0,80,0.00,,CLR,0.00,VWS V14.01,2013-06-12 12:34:00,
2013-06-12 07:36:00,72.8,66.3,29.88,ENE,68,0.0,0.0,80,0.00,,CLR,0.00,VWS V14.01,2013-06-12 12:36:00,
2013-06-12 07:38:00,73.0,66.5,29.88,NE,45,0.0,0.0,80,0.00,,CLR,0.00,VWS V14.01,2013-06-12 12:38:00,
2013-06-12 07:39:00,73.0,66.5,29.88,NE,45,0.0,0.0,80,0.00,,CLR,0.00,VWS V14.01,2013-06-12 12:39:00,
2013-06-12 07:40:00,73.0,66.5,29.88,NE,45,0.0,0.0,80,0.00,,CLR,0.00,VWS V14.01,2013-06-12 12:40:00,
2013-06-12 07:41:00,73.0,66.5,29.88,NE,45,0.0,0.0,80,0.00,,CLR,0.00,VWS V14.01,2013-06-12 12:41:00,
2013-06-12 07:43:00,73.0,66.5,29.88,NE,45,0.0,0.0,80,0.00,,CLR,0.00,VWS V14.01,2013-06-12 12:43:00,
2013-06-12 07:44:00,73.0,66.5,29.88,NE,45,0.0,0.0,80,0.00,,CLR,0.00,VWS V14.01,2013-06-12 12:44:00,
2013-06-12 07:46:00,73.0,66.1,29.88,NE,45,0.0,0.0,79,0.00,,CLR,0.00,VWS V14.01,2013-06-12 12:46:00,
2013-06-12 07:49:00,73.2,66.3,29.89,North,0,0.0,0.0,79,0.00,,CLR,0.00,VWS V14.01,2013-06-12 12:49:00,
2013-06-12 07:50:00,73.2,66.3,29.89,North,0,0.0,0.0,79,0.00,,CLR,0.00,VWS V14.01,2013-06-12 12:50:00,
2013-06-12 07:52:00,73.4,66.5,29.89,NNE,22,0.0,0.0,79,0.00,,CLR,0.00,VWS V14.01,2013-06-12 12:52:00,
2013-06-12 07:54:00,73.4,66.5,29.88,NNE,22,0.0,0.0,79,0.00,,CLR,0.00,VWS V14.01,2013-06-12 12:54:00,
2013-06-12 07:56:00,73.5,66.2,29.89,NE,45,0.0,0.0,78,0.00,,CLR,0.00,VWS V14.01,2013-06-12 12:56:00,
2013-06-12 07:58:00,73.5,66.2,29.89,NE,45,0.0,0.0,78,0.00,,CLR,0.00,VWS V14.01,2013-06-12 12:58:00,
2013-06-12 07:59:00,73.5,66.2,29.88,NE,45,0.0,0.0,78,0.00,,CLR,0.00,VWS V14.01,2013-06-12 12:59:00,
2013-06-12 08:00:00,73.5,66.2,29.88,ENE,68,0.0,0.0,78,0.00,,CLR,0.00,VWS V14.01,2013-06-12 13:00:00,
2013-06-12 08:01:00,73.5,66.2,29.88,ENE,68,0.0,0.0,78,0.00,,CLR,0.00,VWS V14.01,2013-06-12 13:01:00,
2013-06-12 08:04:00,73.7,66.1,29.88,ENE,68,0.0,0.0,77,0.00,,CLR,0.00,VWS V14.01,2013-06-12 13:04:00,
2013-06-12 08:06:00,73.7,66.1,29.88,NE,45,0.0,0.0,77,0.00,,CLR,0.00,VWS V14.01,2013-06-12 13:06:00,
2013-06-12 08:11:00,73.7,65.7,29.88,ENE,68,0.0,0.0,76,0.00,,CLR,0.00,VWS V14.01,2013-06-12 13:11:00,
2013-06-12 08:12:00,73.9,65.9,29.88,ENE,68,0.0,0.0,76,0.00,,CLR,0.00,VWS V14.01,2013-06-12 13:12:00,
2013-06-12 08:15:00,73.7,65.7,29.88,ENE,68,0.0,0.0,76,0.00,,CLR,0.00,VWS V14.01,2013-06-12 13:15:00,
2013-06-12 08:18:00,74.1,66.1,29.88,ENE,68,0.0,0.0,76,0.00,,CLR,0.00,VWS V14.01,2013-06-12 13:18:00,
2013-06-12 08:20:00,74.1,66.1,29.88,ENE,68,0.0,0.0,76,0.00,,CLR,0.00,VWS V14.01,2013-06-12 13:20:00,
2013-06-12 08:22:00,74.1,66.1,29.88,ENE,68,0.0,0.0,76,0.00,,CLR,0.00,VWS V14.01,2013-06-12 13:22:00,
2013-06-12 08:24:00,74.1,65.7,29.88,ENE,68,0.0,0.0,75,0.00,,CLR,0.00,VWS V14.01,2013-06-12 13:24:00,
2013-06-12 08:26:00,74.1,65.7,29.88,ENE,68,0.0,0.0,75,0.00,,CLR,0.00,VWS V14.01,2013-06-12 13:26:00,
2013-06-12 08:27:00,74.1,65.7,29.87,ENE,68,0.0,0.0,75,0.00,,CLR,0.00,VWS V14.01,2013-06-12 13:27:00,
2013-06-12 08:29:00,74.1,65.7,29.87,ENE,68,0.0,0.0,75,0.00,,CLR,0.00,VWS V14.01,2013-06-12 13:29:00,
2013-06-12 08:33:00,74.3,65.9,29.87,ENE,68,0.0,0.0,75,0.00,,CLR,0.00,VWS V14.01,2013-06-12 13:33:00,
2013-06-12 08:34:00,74.1,65.3,29.87,ENE,68,0.0,0.0,74,0.00,,CLR,0.00,VWS V14.01,2013-06-12 13:34:00,
2013-06-12 08:37:00,74.3,65.5,29.86,NE,45,0.0,0.0,74,0.00,,CLR,0.00,VWS V14.01,2013-06-12 13:37:00,
2013-06-12 08:40:00,74.3,65.5,29.86,ENE,68,0.0,0.0,74,0.00,,CLR,0.00,VWS V14.01,2013-06-12 13:40:00,
2013-06-12 08:41:00,74.4,65.6,29.86,ENE,68,3.0,3.0,74,0.00,,CLR,0.00,VWS V14.01,2013-06-12 13:41:00,
2013-06-12 08:44:00,74.4,65.2,29.86,ENE,68,0.0,0.0,73,0.00,,CLR,0.00,VWS V14.01,2013-06-12 13:44:00,
2013-06-12 08:45:00,74.4,65.2,29.86,ENE,68,0.0,0.0,73,0.00,,CLR,0.00,VWS V14.01,2013-06-12 13:45:00,
2013-06-12 08:46:00,74.6,65.4,29.86,ENE,68,0.0,0.0,73,0.00,,CLR,0.00,VWS V14.01,2013-06-12 13:46:00,
2013-06-12 08:47:00,74.4,65.2,29.86,ENE,68,0.0,0.0,73,0.00,,CLR,0.00,VWS V14.01,2013-06-12 13:47:00,
2013-06-12 08:50:00,74.6,65.8,29.86,ENE,68,0.0,0.0,74,0.00,,CLR,0.00,VWS V14.01,2013-06-12 13:50:00,
2013-06-12 08:52:00,74.6,65.8,29.86,ENE,68,0.0,0.0,74,0.00,,CLR,0.00,VWS V14.01,2013-06-12 13:52:00,
2013-06-12 08:56:00,74.8,66.0,29.86,NE,45,0.0,0.0,74,0.00,,CLR,0.00,VWS V14.01,2013-06-12 13:56:00,
2013-06-12 08:58:00,75.0,65.8,29.85,ENE,68,0.0,0.0,73,0.00,,CLR,0.00,VWS V14.01,2013-06-12 13:58:00,
2013-06-12 08:59:00,75.0,65.8,29.85,ENE,68,0.0,0.0,73,0.00,,CLR,0.00,VWS V14.01,2013-06-12 13:59:00,
2013-06-12 09:00:00,75.0,65.8,29.85,ENE,68,0.0,0.0,73,0.00,,CLR,0.00,VWS V14.01,2013-06-12 14:00:00,
2013-06-12 09:01:00,75.2,66.0,29.85,ENE,68,0.0,0.0,73,0.00,,CLR,0.00,VWS V14.01,2013-06-12 14:01:00,
2013-06-12 09:02:00,75.0,65.8,29.85,ENE,68,0.0,0.0,73,0.00,,CLR,0.00,VWS V14.01,2013-06-12 14:02:00,
2013-06-12 09:04:00,75.0,65.8,29.85,East,90,0.0,0.0,73,0.00,,CLR,0.00,VWS V14.01,2013-06-12 14:04:00,
2013-06-12 09:06:00,75.0,65.8,29.84,SE,135,0.0,0.0,73,0.00,,CLR,0.00,VWS V14.01,2013-06-12 14:06:00,
2013-06-12 09:08:00,75.2,66.0,29.84,ENE,68,0.0,0.0,73,0.00,,CLR,0.00,VWS V14.01,2013-06-12 14:08:00,
2013-06-12 09:10:00,75.0,65.4,29.83,East,90,0.0,0.0,72,0.00,,CLR,0.00,VWS V14.01,2013-06-12 14:10:00,
2013-06-12 09:11:00,75.0,65.4,29.83,East,90,0.0,0.0,72,0.00,,CLR,0.00,VWS V14.01,2013-06-12 14:11:00,
2013-06-12 09:12:00,75.0,65.4,29.84,ENE,68,0.0,0.0,72,0.00,,CLR,0.00,VWS V14.01,2013-06-12 14:12:00,
2013-06-12 09:14:00,75.0,65.4,29.83,East,90,0.0,0.0,72,0.00,,CLR,0.00,VWS V14.01,2013-06-12 14:14:00,
2013-06-12 09:15:00,74.8,65.2,29.83,ENE,68,0.0,0.0,72,0.00,,CLR,0.00,VWS V14.01,2013-06-12 14:15:00,
2013-06-12 09:17:00,74.8,65.2,29.83,ENE,68,0.0,0.0,72,0.00,,CLR,0.00,VWS V14.01,2013-06-12 14:17:00,
2013-06-12 09:19:00,74.8,65.2,29.84,ENE,68,0.0,0.0,72,0.00,,CLR,0.00,VWS V14.01,2013-06-12 14:19:00,
2013-06-12 09:22:00,74.6,65.0,29.85,ENE,68,6.2,6.2,72,0.00,,CLR,0.00,VWS V14.01,2013-06-12 14:22:00,
2013-06-12 09:23:00,74.6,65.0,29.85,NE,45,0.0,6.2,72,0.00,,CLR,0.00,VWS V14.01,2013-06-12 14:23:00,
2013-06-12 09:26:00,74.4,64.8,29.84,East,90,0.0,0.0,72,0.00,,CLR,0.00,VWS V14.01,2013-06-12 14:26:00,
2013-06-12 09:27:00,74.4,64.8,29.83,East,90,0.0,0.0,72,0.00,,CLR,0.00,VWS V14.01,2013-06-12 14:27:00,
2013-06-12 09:28:00,74.3,64.7,29.83,ESE,112,0.0,0.0,72,0.00,,CLR,0.00,VWS V14.01,2013-06-12 14:28:00,
2013-06-12 09:32:00,74.1,64.9,29.77,SSE,158,0.0,0.0,73,0.00,,CLR,0.00,VWS V14.01,2013-06-12 14:32:00,
2013-06-12 09:33:00,74.1,65.3,29.75,SE,135,0.0,0.0,74,0.00,,CLR,0.00,VWS V14.01,2013-06-12 14:33:00,
2013-06-12 09:34:00,74.1,65.3,29.74,SSE,158,0.0,0.0,74,0.00,,CLR,0.00,VWS V14.01,2013-06-12 14:34:00,
2013-06-12 09:36:00,74.1,65.3,29.73,SE,135,0.0,8.8,74,0.00,,CLR,0.00,VWS V14.01,2013-06-12 14:36:00,
2013-06-12 09:37:00,74.1,65.3,29.73,ESE,112,0.0,0.0,74,0.00,,CLR,0.00,VWS V14.01,2013-06-12 14:37:00,
2013-06-12 09:40:00,74.1,65.3,29.72,ENE,68,0.0,0.0,74,0.00,,CLR,0.00,VWS V14.01,2013-06-12 14:40:00,
2013-06-12 09:42:00,74.1,65.7,29.70,SW,225,0.0,0.0,75,0.00,,CLR,0.00,VWS V14.01,2013-06-12 14:42:00,
2013-06-12 09:43:00,74.1,65.7,29.70,ENE,68,0.0,0.0,75,0.00,,CLR,0.00,VWS V14.01,2013-06-12 14:43:00,
2013-06-12 09:44:00,74.3,65.9,29.70,East,90,0.0,0.0,75,0.00,,CLR,0.00,VWS V14.01,2013-06-12 14:44:00,
2013-06-12 09:45:00,74.3,65.5,29.70,NE,45,0.0,0.0,74,0.00,,CLR,0.00,VWS V14.01,2013-06-12 14:45:00,
2013-06-12 09:47:00,74.6,65.8,29.70,NE,45,0.0,0.0,74,0.00,,CLR,0.00,VWS V14.01,2013-06-12 14:47:00,
2013-06-12 09:48:00,74.6,65.8,29.70,SE,135,0.0,0.0,74,0.00,,CLR,0.00,VWS V14.01,2013-06-12 14:48:00,
2013-06-12 09:50:00,74.8,66.0,29.70,SSE,158,2.6,2.6,74,0.00,,,0.00,VWS V14.01,2013-06-12 14:50:00,
2013-06-12 09:51:00,75.0,66.2,29.69,NE,45,0.0,2.6,74,0.00,,,0.00,VWS V14.01,2013-06-12 14:51:00,
2013-06-12 09:52:00,75.0,66.2,29.69,South,180,0.0,0.0,74,0.00,,,0.00,VWS V14.01,2013-06-12 14:52:00,
2013-06-12 09:53:00,75.3,66.4,29.69,SW,225,0.0,0.0,74,0.00,,,0.00,VWS V14.01,2013-06-12 14:53:00,
2013-06-12 09:54:00,75.3,66.4,29.69,South,180,3.4,3.4,74,0.00,,,0.00,VWS V14.01,2013-06-12 14:54:00,
2013-06-12 09:56:00,75.3,66.1,29.70,South,180,0.0,4.4,73,0.00,,,0.00,VWS V14.01,2013-06-12 14:56:00,
2013-06-12 09:58:00,75.5,66.2,29.70,SW,225,0.0,0.0,73,0.00,,,0.00,VWS V14.01,2013-06-12 14:58:00,
2013-06-12 09:59:00,75.7,66.4,29.70,SE,135,0.0,0.0,73,0.00,,,0.00,VWS V14.01,2013-06-12 14:59:00,
2013-06-12 10:00:00,75.7,66.4,29.70,SSW,202,8.8,8.8,73,0.00,,,0.00,VWS V14.01,2013-06-12 15:00:00,
2013-06-12 10:02:00,75.9,66.2,29.71,SSE,158,0.0,8.8,72,0.00,,,0.00,VWS V14.01,2013-06-12 15:02:00,
2013-06-12 10:04:00,76.1,66.0,29.71,SSE,158,0.0,6.2,71,0.00,,,0.00,VWS V14.01,2013-06-12 15:04:00,
2013-06-12 10:07:00,76.4,65.9,29.73,South,180,0.0,4.8,70,0.00,,,0.00,VWS V14.01,2013-06-12 15:07:00,
2013-06-12 10:08:00,76.6,66.1,29.73,SSE,158,0.0,4.8,70,0.00,,,0.00,VWS V14.01,2013-06-12 15:08:00,
2013-06-12 10:09:00,76.8,66.3,29.73,South,180,0.0,0.0,70,0.00,,,0.00,VWS V14.01,2013-06-12 15:09:00,
2013-06-12 10:12:00,77.3,66.3,29.74,South,180,0.0,0.0,69,0.00,,,0.00,VWS V14.01,2013-06-12 15:12:00,
2013-06-12 10:13:00,77.3,66.3,29.74,SSE,158,7.6,7.6,69,0.00,,,0.00,VWS V14.01,2013-06-12 15:13:00,
2013-06-12 10:14:00,77.7,66.7,29.75,SSE,158,0.0,0.0,69,0.00,,,0.00,VWS V14.01,2013-06-12 15:14:00,
2013-06-12 10:16:00,77.9,66.5,29.75,South,180,2.6,2.6,68,0.00,,,0.00,VWS V14.01,2013-06-12 15:16:00,
2013-06-12 10:18:00,78.2,66.4,29.75,SSE,158,0.0,0.0,67,0.00,,,0.00,VWS V14.01,2013-06-12 15:18:00,
2013-06-12 10:19:00,78.4,66.6,29.75,SE,135,0.0,0.0,67,0.00,,,0.00,VWS V14.01,2013-06-12 15:19:00,
2013-06-12 10:21:00,78.6,66.3,29.75,SE,135,4.0,4.0,66,0.00,,,0.00,VWS V14.01,2013-06-12 15:21:00,
2013-06-12 10:22:00,78.9,66.6,29.75,SE,135,0.0,0.0,66,0.00,,,0.00,VWS V14.01,2013-06-12 15:22:00,
2013-06-12 10:24:00,79.1,66.8,29.75,South,180,0.0,0.0,66,0.00,,,0.00,VWS V14.01,2013-06-12 15:24:00,
2013-06-12 10:26:00,79.5,66.7,29.75,SSW,202,0.0,1.6,65,0.00,,,0.00,VWS V14.01,2013-06-12 15:26:00,
2013-06-12 10:27:00,79.5,66.7,29.75,SW,225,0.0,0.0,65,0.00,,,0.00,VWS V14.01,2013-06-12 15:27:00,
2013-06-12 10:28:00,79.7,66.5,29.75,WSW,248,0.0,0.0,64,0.00,,,0.00,VWS V14.01,2013-06-12 15:28:00,
2013-06-12 10:29:00,79.8,66.6,29.76,WSW,248,0.0,0.0,64,0.00,,,0.00,VWS V14.01,2013-06-12 15:29:00,
2013-06-12 10:30:00,80.0,66.3,29.76,SSE,158,3.0,3.0,63,0.00,,,0.00,VWS V14.01,2013-06-12 15:30:00,
2013-06-12 10:34:00,80.4,66.7,29.76,WSW,248,0.0,0.0,63,0.00,,,0.00,VWS V14.01,2013-06-12 15:34:00,
2013-06-12 10:35:00,80.6,66.4,29.77,SSE,158,5.2,5.2,62,0.00,,,0.00,VWS V14.01,2013-06-12 15:35:00,
2013-06-12 10:36:00,80.6,66.4,29.77,South,180,10.2,10.2,62,0.00,,,0.00,VWS V14.01,2013-06-12 15:36:00,
2013-06-12 10:38:00,80.9,66.7,29.77,SSE,158,0.0,10.2,62,0.00,,,0.00,VWS V14.01,2013-06-12 15:38:00,
2013-06-12 10:41:00,80.9,66.2,29.78,South,180,0.0,0.0,61,0.00,,,0.00,VWS V14.01,2013-06-12 15:41:00,
2013-06-12 10:42:00,81.1,66.4,29.78,West,270,0.0,0.0,61,0.00,,,0.00,VWS V14.01,2013-06-12 15:42:00,
2013-06-12 10:44:00,81.1,66.4,29.78,SSE,158,0.0,0.0,61,0.00,,,0.00,VWS V14.01,2013-06-12 15:44:00,
2013-06-12 10:45:00,81.3,66.6,29.78,SSE,158,0.0,0.0,61,0.00,,,0.00,VWS V14.01,2013-06-12 15:45:00,
2013-06-12 10:46:00,81.3,66.6,29.78,SSE,158,0.0,0.0,61,0.00,,,0.00,VWS V14.01,2013-06-12 15:46:00,
2013-06-12 10:49:00,81.5,66.8,29.78,South,180,3.0,3.0,61,0.00,,,0.00,VWS V14.01,2013-06-12 15:49:00,
2013-06-12 10:51:00,81.6,66.9,29.78,South,180,4.8,4.8,61,0.00,,CLR,0.00,VWS V14.01,2013-06-12 15:51:00,
2013-06-12 10:55:00,82.2,67.4,29.78,South,180,17.4,17.4,61,0.00,,CLR,0.00,VWS V14.01,2013-06-12 15:55:00,
2013-06-12 10:56:00,82.5,67.2,29.78,South,180,9.8,17.4,60,0.00,,CLR,0.00,VWS V14.01,2013-06-12 15:56:00,
2013-06-12 10:58:00,83.1,67.3,29.77,South,180,0.0,9.8,59,0.00,,CLR,0.00,VWS V14.01,2013-06-12 15:58:00,
2013-06-12 10:59:00,83.3,67.0,29.76,South,180,11.0,11.0,58,0.00,,CLR,0.00,VWS V14.01,2013-06-12 15:59:00,
2013-06-12 11:02:00,84.0,66.6,29.75,SE,135,8.8,8.8,56,0.00,,CLR,0.00,VWS V14.01,2013-06-12 16:02:00,
2013-06-12 11:04:00,84.3,66.9,29.75,WSW,248,4.8,8.8,56,0.00,,CLR,0.00,VWS V14.01,2013-06-12 16:04:00,
2013-06-12 11:06:00,84.5,66.6,29.74,SSE,158,4.0,4.0,55,0.00,,CLR,0.00,VWS V14.01,2013-06-12 16:06:00,
2013-06-12 11:08:00,84.5,66.1,29.72,SSW,202,3.4,3.4,54,0.00,,CLR,0.00,VWS V14.01,2013-06-12 16:08:00,
2013-06-12 11:11:00,84.3,65.3,29.72,South,180,3.4,3.4,53,0.00,,CLR,0.00,VWS V14.01,2013-06-12 16:11:00,
2013-06-12 11:12:00,84.0,65.1,29.72,SSW,202,4.0,11.6,53,0.00,,CLR,0.00,VWS V14.01,2013-06-12 16:12:00,
2013-06-12 11:13:00,84.0,65.1,29.72,SSW,202,4.0,4.0,53,0.00,,CLR,0.00,VWS V14.01,2013-06-12 16:13:00,
2013-06-12 11:15:00,84.0,65.1,29.73,South,180,10.2,10.2,53,0.00,,CLR,0.00,VWS V14.01,2013-06-12 16:15:00,
2013-06-12 11:16:00,84.2,65.2,29.73,SSW,202,4.8,10.2,53,0.00,,CLR,0.00,VWS V14.01,2013-06-12 16:16:00,
2013-06-12 11:18:00,84.0,65.1,29.73,South,180,0.0,6.2,53,0.00,,CLR,0.00,VWS V14.01,2013-06-12 16:18:00,
2013-06-12 11:20:00,83.8,64.3,29.74,SSW,202,6.2,17.4,52,0.00,,CLR,0.00,VWS V14.01,2013-06-12 16:20:00,
2013-06-12 11:22:00,84.0,65.1,29.75,South,180,5.8,5.8,53,0.00,,CLR,0.00,VWS V14.01,2013-06-12 16:22:00,
2013-06-12 11:24:00,84.2,65.2,29.75,South,180,4.8,5.2,53,0.00,,CLR,0.00,VWS V14.01,2013-06-12 16:24:00,
2013-06-12 11:26:00,84.5,65.5,29.75,SSW,202,0.0,9.8,53,0.00,,CLR,0.00,VWS V14.01,2013-06-12 16:26:00,
2013-06-12 11:27:00,84.5,65.5,29.75,SSW,202,0.0,0.0,53,0.00,,CLR,0.00,VWS V14.01,2013-06-12 16:27:00,
2013-06-12 11:28:00,84.7,65.7,29.75,WNW,292,0.0,0.0,53,0.00,,CLR,0.00,VWS V14.01,2013-06-12 16:28:00,
2013-06-12 11:29:00,84.9,65.9,29.75,WSW,248,0.0,0.0,53,0.00,,CLR,0.00,VWS V14.01,2013-06-12 16:29:00,
2013-06-12 11:32:00,85.4,66.3,29.75,SSW,202,13.8,13.8,53,0.00,,CLR,0.00,VWS V14.01,2013-06-12 16:32:00,
2013-06-12 11:33:00,85.4,66.3,29.75,SSW,202,13.8,13.8,53,0.00,,CLR,0.00,VWS V14.01,2013-06-12 16:33:00,
2013-06-12 11:36:00,85.8,66.2,29.76,SSE,158,0.0,0.0,52,0.00,,CLR,0.00,VWS V14.01,2013-06-12 16:36:00,
2013-06-12 11:38:00,85.8,66.2,29.75,South,180,0.0,0.0,52,0.00,,CLR,0.00,VWS V14.01,2013-06-12 16:38:00,
2013-06-12 11:39:00,86.1,66.4,29.75,SSW,202,0.0,0.0,52,0.00,,CLR,0.00,VWS V14.01,2013-06-12 16:39:00,
2013-06-12 11:44:00,86.5,65.7,29.75,South,180,0.0,16.4,50,0.00,,CLR,0.00,VWS V14.01,2013-06-12 16:44:00,
2013-06-12 11:45:00,86.3,65.5,29.74,SW,225,0.0,0.0,50,0.00,,CLR,0.00,VWS V14.01,2013-06-12 16:45:00,
2013-06-12 11:46:00,86.3,65.5,29.75,SSW,202,6.2,6.2,50,0.00,,CLR,0.00,VWS V14.01,2013-06-12 16:46:00,
2013-06-12 11:48:00,86.7,65.9,29.74,SSW,202,0.0,10.6,50,0.00,,CLR,0.00,VWS V14.01,2013-06-12 16:48:00,
2013-06-12 11:50:00,86.9,66.0,29.74,SSE,158,2.6,2.6,50,0.00,,CLR,0.00,VWS V14.01,2013-06-12 16:50:00,
2013-06-12 11:51:00,86.9,66.0,29.74,SSE,158,2.6,2.6,50,0.00,,CLR,0.00,VWS V14.01,2013-06-12 16:51:00,
2013-06-12 11:54:00,86.9,65.5,29.74,SSW,202,0.0,0.0,49,0.00,,CLR,0.00,VWS V14.01,2013-06-12 16:54:00,
2013-06-12 11:55:00,86.9,65.5,29.74,SSW,202,2.2,2.2,49,0.00,,CLR,0.00,VWS V14.01,2013-06-12 16:55:00,
2013-06-12 11:56:00,87.0,65.0,29.74,SW,225,0.0,2.2,48,0.00,,CLR,0.00,VWS V14.01,2013-06-12 16:56:00,
2013-06-12 11:58:00,87.4,64.7,29.74,SSE,158,11.0,11.0,47,0.00,,CLR,0.00,VWS V14.01,2013-06-12 16:58:00,
2013-06-12 11:59:00,87.2,63.9,29.73,SW,225,0.0,0.0,46,0.00,,CLR,0.00,VWS V14.01,2013-06-12 16:59:00,
2013-06-12 12:02:00,87.4,63.5,29.73,SSE,158,11.0,11.0,45,0.00,,CLR,0.00,VWS V14.01,2013-06-12 17:02:00,
2013-06-12 12:06:00,87.6,63.0,29.73,SW,225,0.0,9.2,44,0.00,,CLR,0.00,VWS V14.01,2013-06-12 17:06:00,
2013-06-12 12:07:00,87.9,63.9,29.73,SSW,202,0.0,0.0,45,0.00,,CLR,0.00,VWS V14.01,2013-06-12 17:07:00,
2013-06-12 12:08:00,87.9,63.9,29.73,South,180,0.0,0.0,45,0.00,,CLR,0.00,VWS V14.01,2013-06-12 17:08:00,
2013-06-12 12:10:00,87.9,63.9,29.73,SSW,202,0.0,8.8,45,0.00,,CLR,0.00,VWS V14.01,2013-06-12 17:10:00,
2013-06-12 12:12:00,88.1,64.1,29.74,SSW,202,3.0,3.0,45,0.00,,CLR,0.00,VWS V14.01,2013-06-12 17:12:00,
2013-06-12 12:17:00,88.5,64.5,29.73,SE,135,7.0,7.0,45,0.00,,CLR,0.00,VWS V14.01,2013-06-12 17:17:00,
2013-06-12 12:18:00,88.5,64.5,29.74,WSW,248,0.0,7.0,45,0.00,,CLR,0.00,VWS V14.01,2013-06-12 17:18:00,
2013-06-12 12:19:00,88.5,64.5,29.74,SSE,158,6.6,6.6,45,0.00,,CLR,0.00,VWS V14.01,2013-06-12 17:19:00,
2013-06-12 12:22:00,89.0,64.3,29.73,WSW,248,7.0,7.0,44,0.00,,CLR,0.00,VWS V14.01,2013-06-12 17:22:00,
2013-06-12 12:23:00,89.0,64.3,29.73,WSW,248,7.0,7.0,44,0.00,,CLR,0.00,VWS V14.01,2013-06-12 17:23:00,
2013-06-12 12:24:00,89.0,63.6,29.73,South,180,8.4,8.4,43,0.00,,CLR,0.00,VWS V14.01,2013-06-12 17:24:00,
2013-06-12 12:28:00,89.0,63.0,29.74,SW,225,0.0,0.0,42,0.00,,CLR,0.00,VWS V14.01,2013-06-12 17:28:00,
2013-06-12 12:31:00,89.2,63.1,29.74,SSE,158,3.4,5.2,42,0.00,,CLR,0.00,VWS V14.01,2013-06-12 17:31:00,
2013-06-12 12:32:00,89.2,63.1,29.74,South,180,7.0,7.0,42,0.00,,CLR,0.00,VWS V14.01,2013-06-12 17:32:00,
2013-06-12 12:33:00,89.2,63.1,29.74,SW,225,0.0,7.0,42,0.00,,CLR,0.00,VWS V14.01,2013-06-12 17:33:00,
2013-06-12 12:36:00,89.4,62.6,29.74,West,270,0.0,0.0,41,0.00,,CLR,0.00,VWS V14.01,2013-06-12 17:36:00,
2013-06-12 12:37:00,89.2,62.4,29.74,SW,225,0.0,0.0,41,0.00,,CLR,0.00,VWS V14.01,2013-06-12 17:37:00,
2013-06-12 12:38:00,89.2,62.4,29.73,SSW,202,3.0,3.0,41,0.00,,CLR,0.00,VWS V14.01,2013-06-12 17:38:00,
2013-06-12 12:41:00,89.2,61.8,29.73,South,180,5.8,15.2,40,0.00,,CLR,0.00,VWS V14.01,2013-06-12 17:41:00,
2013-06-12 12:42:00,89.4,61.9,29.74,West,270,8.4,8.4,40,0.00,,CLR,0.00,VWS V14.01,2013-06-12 17:42:00,
2013-06-12 12:43:00,89.2,61.0,29.74,West,270,0.0,8.4,39,0.00,,CLR,0.00,VWS V14.01,2013-06-12 17:43:00,
2013-06-12 12:47:00,89.2,61.8,29.74,SSE,158,2.6,4.8,40,0.00,,CLR,0.00,VWS V14.01,2013-06-12 17:47:00,
2013-06-12 12:49:00,89.0,61.6,29.74,South,180,14.6,14.6,40,0.00,,CLR,0.00,VWS V14.01,2013-06-12 17:49:00,
2013-06-12 12:50:00,89.0,61.6,29.74,West,270,0.0,14.6,40,0.00,,CLR,0.00,VWS V14.01,2013-06-12 17:50:00,
2013-06-12 12:51:00,88.8,61.4,29.73,West,270,9.8,9.8,40,0.00,,CLR,0.00,VWS V14.01,2013-06-12 17:51:00,
2013-06-12 12:55:00,88.7,61.3,29.73,SW,225,3.4,8.0,40,0.00,,CLR,0.00,VWS V14.01,2013-06-12 17:55:00,
2013-06-12 12:56:00,88.5,61.1,29.73,WSW,248,6.2,8.0,40,0.00,,CLR,0.00,VWS V14.01,2013-06-12 17:56:00,
2013-06-12 12:58:00,88.7,61.3,29.73,SW,225,0.0,0.0,40,0.00,,CLR,0.00,VWS V14.01,2013-06-12 17:58:00,
2013-06-12 13:00:00,88.5,61.1,29.73,SW,225,0.0,0.0,40,0.00,,CLR,0.00,VWS V14.01,2013-06-12 18:00:00,
2013-06-12 13:03:00,88.5,61.8,29.73,West,270,0.0,0.8,41,0.00,,CLR,0.00,VWS V14.01,2013-06-12 18:03:00,
2013-06-12 13:05:00,88.5,62.5,29.73,SE,135,0.0,0.0,42,0.00,,CLR,0.00,VWS V14.01,2013-06-12 18:05:00,
2013-06-12 13:06:00,88.5,62.5,29.73,WSW,248,0.0,0.0,42,0.00,,CLR,0.00,VWS V14.01,2013-06-12 18:06:00,
2013-06-12 13:08:00,88.7,62.7,29.73,West,270,3.4,3.4,42,0.00,,CLR,0.00,VWS V14.01,2013-06-12 18:08:00,
2013-06-12 13:10:00,88.7,62.7,29.73,SSW,202,11.6,11.6,42,0.00,,CLR,0.00,VWS V14.01,2013-06-12 18:10:00,
2013-06-12 13:11:00,88.7,62.7,29.73,WSW,248,7.6,11.6,42,0.00,,CLR,0.00,VWS V14.01,2013-06-12 18:11:00,
2013-06-12 13:12:00,88.7,62.7,29.73,SW,225,0.0,11.6,42,0.00,,CLR,0.00,VWS V14.01,2013-06-12 18:12:00,
2013-06-12 13:13:00,88.7,62.7,29.73,SW,225,0.0,0.0,42,0.00,,CLR,0.00,VWS V14.01,2013-06-12 18:13:00,
2013-06-12 13:16:00,89.0,62.3,29.73,South,180,12.0,13.8,41,0.00,,CLR,0.00,VWS V14.01,2013-06-12 18:16:00,
2013-06-12 13:17:00,89.0,61.6,29.73,SSW,202,3.4,12.0,40,0.00,,CLR,0.00,VWS V14.01,2013-06-12 18:17:00,
2013-06-12 13:22:00,89.0,61.6,29.73,South,180,4.4,4.4,40,0.00,,CLR,0.00,VWS V14.01,2013-06-12 18:22:00,
2013-06-12 13:23:00,89.0,61.6,29.73,SW,225,0.0,4.4,40,0.00,,CLR,0.00,VWS V14.01,2013-06-12 18:23:00,
2013-06-12 13:24:00,89.0,61.6,29.73,South,180,2.6,2.6,40,0.00,,CLR,0.00,VWS V14.01,2013-06-12 18:24:00,
2013-06-12 13:28:00,89.2,62.4,29.73,WSW,248,5.8,5.8,41,0.00,,CLR,0.00,VWS V14.01,2013-06-12 18:28:00,
2013-06-12 13:29:00,89.2,62.4,29.73,WSW,248,7.0,7.0,41,0.00,,CLR,0.00,VWS V14.01,2013-06-12 18:29:00,
2013-06-12 13:30:00,89.2,62.4,29.73,West,270,6.2,7.0,41,0.00,,CLR,0.00,VWS V14.01,2013-06-12 18:30:00,
2013-06-12 13:31:00,89.2,61.8,29.73,West,270,8.0,8.0,40,0.00,,CLR,0.00,VWS V14.01,2013-06-12 18:31:00,
2013-06-12 13:35:00,89.0,61.6,29.73,South,180,1.6,11.6,40,0.00,,CLR,0.00,VWS V14.01,2013-06-12 18:35:00,
2013-06-12 13:36:00,89.2,61.8,29.73,West,270,5.2,11.6,40,0.00,,CLR,0.00,VWS V14.01,2013-06-12 18:36:00,
2013-06-12 13:38:00,89.2,62.4,29.73,WSW,248,0.0,5.2,41,0.00,,CLR,0.00,VWS V14.01,2013-06-12 18:38:00,
2013-06-12 13:40:00,89.0,61.6,29.73,SSE,158,0.0,0.0,40,0.00,,CLR,0.00,VWS V14.01,2013-06-12 18:40:00,
2013-06-12 13:42:00,89.2,62.4,29.73,West,270,0.0,0.0,41,0.00,,CLR,0.00,VWS V14.01,2013-06-12 18:42:00,
2013-06-12 13:43:00,89.0,62.3,29.73,North,0,0.0,0.0,41,0.00,,CLR,0.00,VWS V14.01,2013-06-12 18:43:00,
2013-06-12 13:44:00,89.0,61.6,29.73,West,270,0.0,0.0,40,0.00,,CLR,0.00,VWS V14.01,2013-06-12 18:44:00,
2013-06-12 13:45:00,89.0,62.3,29.73,ESE,112,6.2,6.2,41,0.00,,CLR,0.00,VWS V14.01,2013-06-12 18:45:00,
2013-06-12 13:46:00,88.8,62.1,29.73,WSW,248,0.0,6.2,41,0.00,,CLR,0.00,VWS V14.01,2013-06-12 18:46:00,
2013-06-12 13:48:00,89.0,62.3,29.73,West,270,2.2,2.2,41,0.00,,CLR,0.00,VWS V14.01,2013-06-12 18:48:00,
2013-06-12 13:51:00,88.7,62.0,29.73,West,270,0.0,0.0,41,0.00,,CLR,0.00,VWS V14.01,2013-06-12 18:51:00,
2013-06-12 13:54:00,88.5,61.8,29.73,WSW,248,0.0,4.0,41,0.00,,CLR,0.00,VWS V14.01,2013-06-12 18:54:00,
2013-06-12 13:56:00,88.5,62.5,29.73,West,270,3.4,4.8,42,0.00,,CLR,0.00,VWS V14.01,2013-06-12 18:56:00,
2013-06-12 13:58:00,88.5,62.5,29.73,West,270,8.4,8.4,42,0.00,,CLR,0.00,VWS V14.01,2013-06-12 18:58:00,
2013-06-12 13:59:00,88.5,61.8,29.73,WSW,248,6.6,8.4,41,0.00,,CLR,0.00,VWS V14.01,2013-06-12 18:59:00,
2013-06-12 14:00:00,88.3,61.6,29.73,West,270,0.0,0.0,41,0.00,,CLR,0.00,VWS V14.01,2013-06-12 19:00:00,
2013-06-12 14:04:00,88.1,62.1,29.73,WSW,248,0.0,0.0,42,0.00,,CLR,0.00,VWS V14.01,2013-06-12 19:04:00,
2013-06-12 14:05:00,88.1,62.1,29.73,WNW,292,4.4,4.4,42,0.00,,CLR,0.00,VWS V14.01,2013-06-12 19:05:00,
2013-06-12 14:06:00,88.1,61.5,29.73,WSW,248,0.0,4.4,41,0.00,,CLR,0.00,VWS V14.01,2013-06-12 19:06:00,
2013-06-12 14:07:00,88.1,62.1,29.73,WSW,248,0.0,0.0,42,0.00,,CLR,0.00,VWS V14.01,2013-06-12 19:07:00,
2013-06-12 14:08:00,88.1,62.1,29.73,SW,225,0.0,0.0,42,0.00,,CLR,0.00,VWS V14.01,2013-06-12 19:08:00,
2013-06-12 14:10:00,88.1,62.1,29.73,West,270,0.0,0.0,42,0.00,,CLR,0.00,VWS V14.01,2013-06-12 19:10:00,
2013-06-12 14:11:00,88.1,62.1,29.73,West,270,0.0,0.0,42,0.00,,CLR,0.00,VWS V14.01,2013-06-12 19:11:00,
2013-06-12 14:12:00,88.1,62.1,29.72,West,270,0.0,0.0,42,0.00,,CLR,0.00,VWS V14.01,2013-06-12 19:12:00,
2013-06-12 14:13:00,88.1,62.1,29.73,West,270,0.0,0.0,42,0.00,,CLR,0.00,VWS V14.01,2013-06-12 19:13:00,
2013-06-12 14:14:00,88.1,62.1,29.73,SW,225,0.0,0.0,42,0.00,,CLR,0.00,VWS V14.01,2013-06-12 19:14:00,
2013-06-12 14:15:00,88.1,62.1,29.73,West,270,3.4,3.4,42,0.00,,CLR,0.00,VWS V14.01,2013-06-12 19:15:00,
2013-06-12 14:16:00,88.3,62.3,29.73,West,270,6.6,6.6,42,0.00,,CLR,0.00,VWS V14.01,2013-06-12 19:16:00,
2013-06-12 14:17:00,88.3,62.3,29.73,WNW,292,0.0,6.6,42,0.00,,CLR,0.00,VWS V14.01,2013-06-12 19:17:00,
2013-06-12 14:19:00,88.5,62.5,29.73,WNW,292,0.0,0.0,42,0.00,,CLR,0.00,VWS V14.01,2013-06-12 19:19:00,
2013-06-12 14:22:00,88.7,62.7,29.73,West,270,6.2,6.2,42,0.00,,CLR,0.00,VWS V14.01,2013-06-12 19:22:00,
2013-06-12 14:23:00,88.7,62.7,29.73,WSW,248,0.0,6.2,42,0.00,,CLR,0.00,VWS V14.01,2013-06-12 19:23:00,
2013-06-12 14:24:00,88.5,62.5,29.73,West,270,0.0,0.0,42,0.00,,CLR,0.00,VWS V14.01,2013-06-12 19:24:00,
2013-06-12 14:25:00,88.7,62.7,29.73,West,270,2.6,2.6,42,0.00,,CLR,0.00,VWS V14.01,2013-06-12 19:25:00,
2013-06-12 14:29:00,88.7,62.7,29.73,West,270,0.0,0.0,42,0.00,,CLR,0.00,VWS V14.01,2013-06-12 19:29:00,
2013-06-12 14:30:00,88.5,63.2,29.73,West,270,0.0,0.0,43,0.00,,CLR,0.00,VWS V14.01,2013-06-12 19:30:00,
2013-06-12 14:32:00,88.5,62.5,29.73,West,270,0.0,0.0,42,0.00,,CLR,0.00,VWS V14.01,2013-06-12 19:32:00,
2013-06-12 14:34:00,88.5,63.2,29.73,West,270,0.0,0.0,43,0.00,,CLR,0.00,VWS V14.01,2013-06-12 19:34:00,
2013-06-12 14:37:00,88.5,63.8,29.73,ESE,112,0.0,0.0,44,0.00,,CLR,0.00,VWS V14.01,2013-06-12 19:37:00,
2013-06-12 14:38:00,88.5,63.8,29.73,West,270,0.0,0.0,44,0.00,,CLR,0.00,VWS V14.01,2013-06-12 19:38:00,
2013-06-12 14:39:00,88.5,63.8,29.73,WSW,248,0.0,0.0,44,0.00,,CLR,0.00,VWS V14.01,2013-06-12 19:39:00,
2013-06-12 14:40:00,88.5,63.8,29.73,SW,225,6.2,6.2,44,0.00,,FEW050,0.00,VWS V14.01,2013-06-12 19:40:00,
2013-06-12 14:42:00,88.5,63.8,29.73,West,270,0.0,0.0,44,0.00,,FEW050,0.00,VWS V14.01,2013-06-12 19:42:00,
2013-06-12 14:44:00,88.5,63.8,29.73,West,270,0.0,0.0,44,0.00,,FEW050,0.00,VWS V14.01,2013-06-12 19:44:00,
2013-06-12 14:45:00,88.5,63.8,29.73,SSE,158,0.0,0.0,44,0.00,,FEW050,0.00,VWS V14.01,2013-06-12 19:45:00,
2013-06-12 14:46:00,88.7,64.0,29.72,WNW,292,1.6,1.6,44,0.00,,FEW050,0.00,VWS V14.01,2013-06-12 19:46:00,
2013-06-12 14:48:00,88.7,64.0,29.72,WNW,292,4.0,4.0,44,0.00,,FEW050,0.00,VWS V14.01,2013-06-12 19:48:00,
2013-06-12 14:49:00,88.5,63.2,29.72,West,270,0.0,4.0,43,0.00,,FEW050,0.00,VWS V14.01,2013-06-12 19:49:00,
2013-06-12 14:52:00,88.7,64.0,29.72,WSW,248,0.0,0.0,44,0.00,,FEW050,0.00,VWS V14.01,2013-06-12 19:52:00,
2013-06-12 14:54:00,88.7,64.0,29.72,WSW,248,0.0,0.0,44,0.00,,FEW050,0.00,VWS V14.01,2013-06-12 19:54:00,
2013-06-12 14:55:00,88.7,64.0,29.72,West,270,0.0,0.0,44,0.00,,FEW050,0.00,VWS V14.01,2013-06-12 19:55:00,
2013-06-12 14:58:00,88.7,64.0,29.72,West,270,0.0,8.0,44,0.00,,FEW050,0.00,VWS V14.01,2013-06-12 19:58:00,
2013-06-12 14:59:00,88.7,64.0,29.72,SW,225,0.0,0.0,44,0.00,,FEW050,0.00,VWS V14.01,2013-06-12 19:59:00,
2013-06-12 15:02:00,88.7,64.7,29.72,West,270,0.0,0.0,45,0.00,,FEW050,0.00,VWS V14.01,2013-06-12 20:02:00,
2013-06-12 15:03:00,88.7,64.7,29.72,SSW,202,0.0,0.0,45,0.00,,FEW050,0.00,VWS V14.01,2013-06-12 20:03:00,
2013-06-12 15:08:00,88.8,64.1,29.72,West,270,0.0,0.0,44,0.00,,FEW050,0.00,VWS V14.01,2013-06-12 20:08:00,
2013-06-12 15:10:00,88.8,64.1,29.72,West,270,0.0,0.0,44,0.00,,FEW050,0.00,VWS V14.01,2013-06-12 20:10:00,
2013-06-12 15:14:00,89.2,63.8,29.71,SSW,202,0.0,8.0,43,0.00,,FEW050,0.00,VWS V14.01,2013-06-12 20:14:00,
2013-06-12 15:17:00,89.2,63.8,29.71,SSW,202,0.0,0.0,43,0.00,,FEW050,0.00,VWS V14.01,2013-06-12 20:17:00,
2013-06-12 15:20:00,89.4,64.0,29.71,WSW,248,0.0,12.4,43,0.00,,FEW050,0.00,VWS V14.01,2013-06-12 20:20:00,
2013-06-12 15:21:00,89.4,64.0,29.71,WSW,248,0.0,0.0,43,0.00,,FEW050,0.00,VWS V14.01,2013-06-12 20:21:00,
2013-06-12 15:22:00,89.2,63.8,29.71,West,270,4.0,4.0,43,0.00,,FEW050,0.00,VWS V14.01,2013-06-12 20:22:00,
2013-06-12 15:23:00,89.2,63.8,29.71,West,270,0.0,0.0,43,0.00,,FEW050,0.00,VWS V14.01,2013-06-12 20:23:00,
2013-06-12 15:26:00,89.0,63.6,29.70,West,270,5.8,5.8,43,0.00,,FEW050,0.00,VWS V14.01,2013-06-12 20:26:00,
2013-06-12 15:28:00,89.0,63.6,29.70,WSW,248,4.8,4.8,43,0.00,,FEW050,0.00,VWS V14.01,2013-06-12 20:28:00,
2013-06-12 15:30:00,89.2,63.8,29.70,WSW,248,5.2,5.2,43,0.00,,FEW050,0.00,VWS V14.01,2013-06-12 20:30:00,
2013-06-12 15:33:00,89.2,63.8,29.70,WSW,248,6.2,6.2,43,0.00,,FEW050,0.00,VWS V14.01,2013-06-12 20:33:00,
2013-06-12 15:34:00,89.2,63.1,29.70,South,180,2.6,6.2,42,0.00,,FEW050,0.00,VWS V14.01,2013-06-12 20:34:00,
2013-06-12 15:36:00,89.0,63.6,29.70,SW,225,0.0,2.6,43,0.00,,FEW050,0.00,VWS V14.01,2013-06-12 20:36:00,
2013-06-12 15:37:00,89.0,63.6,29.70,WNW,292,3.0,3.0,43,0.00,,FEW050,0.00,VWS V14.01,2013-06-12 20:37:00,
2013-06-12 15:38:00,89.0,63.0,29.70,West,270,7.0,7.0,42,0.00,,FEW050,0.00,VWS V14.01,2013-06-12 20:38:00,
2013-06-12 15:40:00,89.0,63.0,29.70,West,270,0.0,4.4,42,0.00,,BKN060,0.00,VWS V14.01,2013-06-12 20:40:00,
2013-06-12 15:41:00,89.0,63.0,29.70,West,270,0.0,0.0,42,0.00,,BKN060,0.00,VWS V14.01,2013-06-12 20:41:00,
2013-06-12 15:42:00,88.8,62.8,29.70,West,270,0.0,0.0,42,0.00,,BKN060,0.00,VWS V14.01,2013-06-12 20:42:00,
2013-06-12 15:45:00,88.7,63.3,29.70,West,270,0.0,0.0,43,0.00,,BKN060,0.00,VWS V14.01,2013-06-12 20:45:00,
2013-06-12 15:46:00,88.7,63.3,29.69,WSW,248,0.0,0.0,43,0.00,,BKN060,0.00,VWS V14.01,2013-06-12 20:46:00,
2013-06-12 15:48:00,88.7,63.3,29.70,West,270,0.0,0.0,43,0.00,,BKN060,0.00,VWS V14.01,2013-06-12 20:48:00,
2013-06-12 15:49:00,88.8,63.4,29.69,SSW,202,0.0,0.0,43,0.00,,BKN060,0.00,VWS V14.01,2013-06-12 20:49:00,
2013-06-12 15:50:00,88.8,64.1,29.69,SSE,158,3.4,3.4,44,0.00,,BKN060,0.00,VWS V14.01,2013-06-12 20:50:00,
2013-06-12 15:52:00,89.0,63.6,29.69,WSW,248,0.0,3.0,43,0.00,,BKN060,0.00,VWS V14.01,2013-06-12 20:52:00,
2013-06-12 15:53:00,89.0,63.6,29.69,WSW,248,0.0,0.0,43,0.00,,BKN060,0.00,VWS V14.01,2013-06-12 20:53:00,
2013-06-12 15:54:00,89.2,63.8,29.69,SSE,158,0.0,0.0,43,0.00,,BKN060,0.00,VWS V14.01,2013-06-12 20:54:00,
2013-06-12 15:57:00,89.0,63.6,29.69,West,270,0.0,0.0,43,0.00,,BKN060,0.00,VWS V14.01,2013-06-12 20:57:00,
2013-06-12 15:58:00,89.0,63.6,29.69,West,270,0.0,0.0,43,0.00,,BKN060,0.00,VWS V14.01,2013-06-12 20:58:00,
2013-06-12 15:59:00,89.0,63.6,29.69,West,270,0.0,0.0,43,0.00,,BKN060,0.00,VWS V14.01,2013-06-12 20:59:00,
2013-06-12 16:00:00,89.0,63.6,29.69,SE,135,3.0,3.0,43,0.00,,BKN060,0.00,VWS V14.01,2013-06-12 21:00:00,
2013-06-12 16:04:00,89.0,63.6,29.68,South,180,0.0,0.0,43,0.00,,BKN060,0.00,VWS V14.01,2013-06-12 21:04:00,
2013-06-12 16:05:00,89.0,63.6,29.68,South,180,0.0,0.0,43,0.00,,BKN060,0.00,VWS V14.01,2013-06-12 21:05:00,
2013-06-12 16:06:00,89.0,63.6,29.68,West,270,0.0,0.0,43,0.00,,BKN060,0.00,VWS V14.01,2013-06-12 21:06:00,
2013-06-12 16:08:00,89.2,64.5,29.68,SW,225,0.0,0.0,44,0.00,,BKN060,0.00,VWS V14.01,2013-06-12 21:08:00,
2013-06-12 16:09:00,89.2,64.5,29.68,SW,225,0.0,0.0,44,0.00,,BKN060,0.00,VWS V14.01,2013-06-12 21:09:00,
2013-06-12 16:10:00,89.2,64.5,29.67,West,270,0.0,6.6,44,0.00,,BKN060,0.00,VWS V14.01,2013-06-12 21:10:00,
2013-06-12 16:14:00,89.0,63.6,29.67,West,270,2.2,2.2,43,0.00,,BKN060,0.00,VWS V14.01,2013-06-12 21:14:00,
2013-06-12 16:16:00,88.8,63.4,29.67,West,270,0.0,0.0,43,0.00,,BKN060,0.00,VWS V14.01,2013-06-12 21:16:00,
2013-06-12 16:19:00,88.7,63.3,29.67,West,270,5.2,5.2,43,0.00,,BKN060,0.00,VWS V14.01,2013-06-12 21:19:00,
2013-06-12 16:21:00,88.7,63.3,29.67,SSE,158,0.0,0.0,43,0.00,,BKN060,0.00,VWS V14.01,2013-06-12 21:21:00,
2013-06-12 16:22:00,88.7,63.3,29.67,West,270,5.8,5.8,43,0.00,,BKN060,0.00,VWS V14.01,2013-06-12 21:22:00,
2013-06-12 16:25:00,88.5,63.2,29.66,SSE,158,0.0,0.0,43,0.00,,BKN060,0.00,VWS V14.01,2013-06-12 21:25:00,
2013-06-12 16:26:00,88.3,63.0,29.66,West,270,0.0,0.0,43,0.00,,BKN060,0.00,VWS V14.01,2013-06-12 21:26:00,
2013-06-12 16:27:00,88.5,63.8,29.66,WNW,292,0.0,0.0,44,0.00,,BKN060,0.00,VWS V14.01,2013-06-12 21:27:00,
2013-06-12 16:30:00,88.3,63.7,29.66,West,270,0.0,0.0,44,0.00,,BKN060,0.00,VWS V14.01,2013-06-12 21:30:00,
2013-06-12 16:32:00,88.5,63.8,29.66,SSE,158,5.8,11.0,44,0.00,,BKN060,0.00,VWS V14.01,2013-06-12 21:32:00,
2013-06-12 16:34:00,88.3,63.7,29.66,WNW,292,0.0,5.8,44,0.00,,BKN060,0.00,VWS V14.01,2013-06-12 21:34:00,
2013-06-12 16:35:00,88.5,63.8,29.66,West,270,0.0,0.0,44,0.00,,BKN060,0.00,VWS V14.01,2013-06-12 21:35:00,
2013-06-12 16:36:00,88.3,63.7,29.66,SW,225,0.0,0.0,44,0.00,,BKN060,0.00,VWS V14.01,2013-06-12 21:36:00,
2013-06-12 16:38:00,88.5,64.5,29.65,West,270,1.6,1.6,45,0.00,,BKN060,0.00,VWS V14.01,2013-06-12 21:38:00,
2013-06-12 16:40:00,88.3,63.7,29.65,SW,225,0.0,1.6,44,0.00,,FEW065,0.00,VWS V14.01,2013-06-12 21:40:00,
2013-06-12 16:42:00,88.3,63.7,29.65,West,270,0.0,0.0,44,0.00,,FEW065,0.00,VWS V14.01,2013-06-12 21:42:00,
2013-06-12 16:44:00,88.3,63.7,29.65,West,270,0.0,0.0,44,0.00,,FEW065,0.00,VWS V14.01,2013-06-12 21:44:00,
2013-06-12 16:46:00,88.3,64.3,29.65,WSW,248,0.0,3.4,45,0.00,,FEW065,0.00,VWS V14.01,2013-06-12 21:46:00,
2013-06-12 16:47:00,88.5,64.5,29.65,West,270,6.6,6.6,45,0.00,,FEW065,0.00,VWS V14.01,2013-06-12 21:47:00,
2013-06-12 16:48:00,88.5,64.5,29.65,West,270,0.0,6.6,45,0.00,,FEW065,0.00,VWS V14.01,2013-06-12 21:48:00,
2013-06-12 16:49:00,88.5,64.5,29.65,WSW,248,0.0,0.0,45,0.00,,FEW065,0.00,VWS V14.01,2013-06-12 21:49:00,
2013-06-12 16:50:00,88.5,64.5,29.65,West,270,6.2,6.2,45,0.00,,FEW065,0.00,VWS V14.01,2013-06-12 21:50:00,
2013-06-12 16:52:00,88.7,64.7,29.65,West,270,3.4,6.2,45,0.00,,FEW065,0.00,VWS V14.01,2013-06-12 21:52:00,
2013-06-12 16:53:00,88.7,64.0,29.65,West,270,0.0,3.4,44,0.00,,FEW065,0.00,VWS V14.01,2013-06-12 21:53:00,
2013-06-12 16:54:00,88.7,64.0,29.65,West,270,3.0,3.4,44,0.00,,FEW065,0.00,VWS V14.01,2013-06-12 21:54:00,
2013-06-12 16:57:00,88.7,64.0,29.65,SSW,202,2.6,2.6,44,0.00,,FEW065,0.00,VWS V14.01,2013-06-12 21:57:00,
2013-06-12 16:59:00,88.8,64.7,29.64,West,270,0.0,0.0,45,0.00,,FEW065,0.00,VWS V14.01,2013-06-12 21:59:00,
2013-06-12 17:00:00,88.8,64.1,29.64,West,270,6.2,6.2,44,0.00,,FEW065,0.00,VWS V14.01,2013-06-12 22:00:00,
2013-06-12 17:05:00,88.7,63.3,29.64,West,270,3.0,7.6,43,0.00,,FEW065,0.00,VWS V14.01,2013-06-12 22:05:00,
2013-06-12 17:06:00,88.5,63.2,29.64,West,270,0.0,7.6,43,0.00,,FEW065,0.00,VWS V14.01,2013-06-12 22:06:00,
2013-06-12 17:08:00,88.5,63.2,29.64,SSW,202,0.0,4.4,43,0.00,,FEW065,0.00,VWS V14.01,2013-06-12 22:08:00,
2013-06-12 17:12:00,88.5,63.8,29.64,West,270,1.2,1.2,44,0.00,,FEW065,0.00,VWS V14.01,2013-06-12 22:12:00,
2013-06-12 17:14:00,88.5,63.8,29.63,West,270,0.0,1.2,44,0.00,,FEW065,0.00,VWS V14.01,2013-06-12 22:14:00,
2013-06-12 17:15:00,88.5,63.8,29.63,West,270,0.0,0.0,44,0.00,,FEW065,0.00,VWS V14.01,2013-06-12 22:15:00,
2013-06-12 17:16:00,88.3,63.7,29.63,West,270,0.0,0.0,44,0.00,,FEW065,0.00,VWS V14.01,2013-06-12 22:16:00,
2013-06-12 17:18:00,88.1,63.5,29.63,WSW,248,0.0,0.0,44,0.00,,FEW065,0.00,VWS V14.01,2013-06-12 22:18:00,
2013-06-12 17:20:00,88.3,63.7,29.63,WSW,248,7.6,7.6,44,0.00,,FEW065,0.00,VWS V14.01,2013-06-12 22:20:00,
2013-06-12 17:24:00,88.7,63.3,29.63,West,270,12.8,12.8,43,0.00,,FEW065,0.00,VWS V14.01,2013-06-12 22:24:00,
2013-06-12 17:26:00,88.7,62.7,29.63,WSW,248,0.0,12.8,42,0.00,,FEW065,0.00,VWS V14.01,2013-06-12 22:26:00,
2013-06-12 17:27:00,88.7,63.3,29.63,SW,225,0.0,0.0,43,0.00,,FEW065,0.00,VWS V14.01,2013-06-12 22:27:00,
2013-06-12 17:28:00,88.7,63.3,29.63,West,270,2.2,2.2,43,0.00,,FEW065,0.00,VWS V14.01,2013-06-12 22:28:00,
2013-06-12 17:30:00,88.7,63.3,29.63,SSE,158,9.2,9.2,43,0.00,,FEW065,0.00,VWS V14.01,2013-06-12 22:30:00,
2013-06-12 17:31:00,88.7,63.3,29.63,WSW,248,3.4,9.2,43,0.00,,FEW065,0.00,VWS V14.01,2013-06-12 22:31:00,
2013-06-12 17:32:00,88.7,63.3,29.63,SW,225,0.0,9.2,43,0.00,,FEW065,0.00,VWS V14.01,2013-06-12 22:32:00,
2013-06-12 17:34:00,88.7,63.3,29.63,East,90,0.0,0.0,43,0.00,,FEW065,0.00,VWS V14.01,2013-06-12 22:34:00,
2013-06-12 17:36:00,88.8,63.4,29.63,West,270,0.0,3.0,43,0.00,,FEW065,0.00,VWS V14.01,2013-06-12 22:36:00,
2013-06-12 17:37:00,88.8,63.4,29.63,WNW,292,5.8,5.8,43,0.00,,FEW065,0.00,VWS V14.01,2013-06-12 22:37:00,
2013-06-12 17:38:00,88.8,63.4,29.63,West,270,2.6,2.6,43,0.00,,FEW065,0.00,VWS V14.01,2013-06-12 22:38:00,
2013-06-12 17:39:00,88.8,63.4,29.63,West,270,0.0,2.6,43,0.00,,FEW065,0.00,VWS V14.01,2013-06-12 22:39:00,
2013-06-12 17:40:00,88.8,63.4,29.63,SW,225,0.0,2.6,43,0.00,,BKN060,0.00,VWS V14.01,2013-06-12 22:40:00,
2013-06-12 17:43:00,89.0,63.6,29.63,West,270,0.0,0.0,43,0.00,,BKN060,0.00,VWS V14.01,2013-06-12 22:43:00,
2013-06-12 17:44:00,89.0,63.6,29.63,WNW,292,7.0,7.0,43,0.00,,BKN060,0.00,VWS V14.01,2013-06-12 22:44:00,
2013-06-12 17:46:00,89.0,63.6,29.63,SW,225,0.0,0.0,43,0.00,,BKN060,0.00,VWS V14.01,2013-06-12 22:46:00,
2013-06-12 17:48:00,89.0,63.6,29.63,WSW,248,8.8,8.8,43,0.00,,BKN060,0.00,VWS V14.01,2013-06-12 22:48:00,
2013-06-12 17:50:00,89.0,63.0,29.63,West,270,3.4,8.8,42,0.00,,BKN060,0.00,VWS V14.01,2013-06-12 22:50:00,
2013-06-12 17:51:00,89.0,63.0,29.63,West,270,2.6,3.4,42,0.00,,BKN060,0.00,VWS V14.01,2013-06-12 22:51:00,
2013-06-12 17:52:00,88.8,62.8,29.63,WNW,292,6.6,6.6,42,0.00,,BKN060,0.00,VWS V14.01,2013-06-12 22:52:00,
2013-06-12 17:54:00,88.7,62.7,29.63,West,270,6.6,7.6,42,0.00,,BKN060,0.00,VWS V14.01,2013-06-12 22:54:00,
2013-06-12 17:56:00,88.8,62.8,29.63,West,270,2.6,2.6,42,0.00,,BKN060,0.00,VWS V14.01,2013-06-12 22:56:00,
2013-06-12 17:58:00,88.8,62.8,29.63,West,270,0.0,2.6,42,0.00,,BKN060,0.00,VWS V14.01,2013-06-12 22:58:00,
2013-06-12 17:59:00,88.8,62.8,29.63,WNW,292,0.0,0.0,42,0.00,,BKN060,0.00,VWS V14.01,2013-06-12 22:59:00,
2013-06-12 18:00:00,88.8,62.8,29.64,WSW,248,6.6,6.6,42,0.00,,BKN060,0.00,VWS V14.01,2013-06-12 23:00:00,
2013-06-12 18:05:00,88.8,62.8,29.63,WSW,248,4.4,4.4,42,0.00,,BKN060,0.00,VWS V14.01,2013-06-12 23:05:00,
2013-06-12 18:06:00,88.8,62.8,29.63,West,270,0.0,4.4,42,0.00,,BKN060,0.00,VWS V14.01,2013-06-12 23:06:00,
2013-06-12 18:08:00,88.8,62.8,29.63,West,270,1.2,4.8,42,0.00,,BKN060,0.00,VWS V14.01,2013-06-12 23:08:00,
2013-06-12 18:12:00,88.8,62.8,29.64,WSW,248,3.4,3.4,42,0.00,,BKN060,0.00,VWS V14.01,2013-06-12 23:12:00,
2013-06-12 18:13:00,88.7,62.0,29.64,SW,225,5.8,5.8,41,0.00,,BKN060,0.00,VWS V14.01,2013-06-12 23:13:00,
2013-06-12 18:14:00,88.7,62.0,29.65,West,270,0.0,5.8,41,0.00,,BKN060,0.00,VWS V14.01,2013-06-12 23:14:00,
2013-06-12 18:15:00,88.7,62.7,29.65,WSW,248,11.0,11.0,42,0.00,,BKN060,0.00,VWS V14.01,2013-06-12 23:15:00,
2013-06-12 18:18:00,88.7,62.0,29.65,West,270,0.0,0.0,41,0.00,,BKN060,0.00,VWS V14.01,2013-06-12 23:18:00,
2013-06-12 18:21:00,88.7,62.7,29.65,WNW,292,0.0,0.0,42,0.00,,BKN060,0.00,VWS V14.01,2013-06-12 23:21:00,
2013-06-12 18:23:00,88.5,62.5,29.64,NW,315,0.0,5.2,42,0.00,,BKN060,0.00,VWS V14.01,2013-06-12 23:23:00,
2013-06-12 18:26:00,88.1,61.5,29.64,West,270,10.6,10.6,41,0.00,,BKN060,0.00,VWS V14.01,2013-06-12 23:26:00,
2013-06-12 18:27:00,88.1,61.5,29.64,West,270,5.8,10.6,41,0.00,,BKN060,0.00,VWS V14.01,2013-06-12 23:27:00,
2013-06-12 18:29:00,87.9,61.3,29.64,West,270,0.0,5.2,41,0.00,,BKN060,0.00,VWS V14.01,2013-06-12 23:29:00,
2013-06-12 18:30:00,88.1,61.5,29.64,West,270,0.0,5.2,41,0.00,,BKN060,0.00,VWS V14.01,2013-06-12 23:30:00,
2013-06-12 18:32:00,87.9,61.3,29.64,West,270,4.4,4.4,41,0.00,,BKN060,0.00,VWS V14.01,2013-06-12 23:32:00,
2013-06-12 18:33:00,87.9,61.3,29.64,West,270,4.4,4.4,41,0.00,,BKN060,0.00,VWS V14.01,2013-06-12 23:33:00,
2013-06-12 18:34:00,87.9,62.0,29.64,West,270,6.6,6.6,42,0.00,,BKN060,0.00,VWS V14.01,2013-06-12 23:34:00,
2013-06-12 18:37:00,87.8,61.9,29.63,West,270,4.0,4.0,42,0.00,,BKN060,0.00,VWS V14.01,2013-06-12 23:37:00,
2013-06-12 18:38:00,87.9,62.0,29.63,West,270,3.0,3.0,42,0.00,,BKN060,0.00,VWS V14.01,2013-06-12 23:38:00,
2013-06-12 18:40:00,87.9,62.0,29.63,WNW,292,10.2,10.2,42,0.00,,CLR,0.00,VWS V14.01,2013-06-12 23:40:00,
2013-06-12 18:43:00,87.8,61.9,29.63,West,270,8.0,8.0,42,0.00,,CLR,0.00,VWS V14.01,2013-06-12 23:43:00,
2013-06-12 18:44:00,87.9,62.0,29.63,SW,225,0.0,8.0,42,0.00,,CLR,0.00,VWS V14.01,2013-06-12 23:44:00,
2013-06-12 18:46:00,87.9,62.0,29.63,North,0,0.0,0.0,42,0.00,,CLR,0.00,VWS V14.01,2013-06-12 23:46:00,
2013-06-12 18:47:00,87.8,61.9,29.63,West,270,0.0,0.0,42,0.00,,CLR,0.00,VWS V14.01,2013-06-12 23:47:00,
2013-06-12 18:48:00,87.9,62.0,29.63,WNW,292,0.0,0.0,42,0.00,,CLR,0.00,VWS V14.01,2013-06-12 23:48:00,
2013-06-12 18:51:00,87.9,62.6,29.63,West,270,0.0,0.0,43,0.00,,CLR,0.00,VWS V14.01,2013-06-12 23:51:00,
2013-06-12 18:52:00,87.8,61.9,29.62,SW,225,0.0,0.0,42,0.00,,CLR,0.00,VWS V14.01,2013-06-12 23:52:00,
2013-06-12 18:53:00,87.8,62.5,29.62,West,270,0.0,0.0,43,0.00,,CLR,0.00,VWS V14.01,2013-06-12 23:53:00,
2013-06-12 18:54:00,87.8,62.5,29.62,West,270,9.2,9.2,43,0.00,,CLR,0.00,VWS V14.01,2013-06-12 23:54:00,
2013-06-12 18:56:00,87.8,62.5,29.62,West,270,0.0,9.2,43,0.00,,CLR,0.00,VWS V14.01,2013-06-12 23:56:00,
2013-06-12 18:57:00,87.8,62.5,29.62,West,270,0.0,0.0,43,0.00,,CLR,0.00,VWS V14.01,2013-06-12 23:57:00,
2013-06-12 18:58:00,87.8,62.5,29.62,West,270,0.0,0.0,43,0.00,,CLR,0.00,VWS V14.01,2013-06-12 23:58:00,
2013-06-12 19:01:00,87.6,62.4,29.62,West,270,0.0,0.0,43,0.00,,CLR,0.00,VWS V14.01,2013-06-13 00:01:00,
2013-06-12 19:02:00,87.6,62.4,29.62,West,270,0.0,0.0,43,0.00,,CLR,0.00,VWS V14.01,2013-06-13 00:02:00,
2013-06-12 19:03:00,87.6,62.4,29.62,West,270,2.6,2.6,43,0.00,,CLR,0.00,VWS V14.01,2013-06-13 00:03:00,
2013-06-12 19:05:00,87.4,62.2,29.62,West,270,1.6,1.6,43,0.00,,CLR,0.00,VWS V14.01,2013-06-13 00:05:00,
2013-06-12 19:06:00,87.4,62.2,29.62,WNW,292,1.2,1.6,43,0.00,,CLR,0.00,VWS V14.01,2013-06-13 00:06:00,
2013-06-12 19:08:00,87.6,62.4,29.62,West,270,2.6,2.6,43,0.00,,CLR,0.00,VWS V14.01,2013-06-13 00:08:00,
2013-06-12 19:10:00,87.4,62.2,29.62,West,270,0.0,7.0,43,0.00,,CLR,0.00,VWS V14.01,2013-06-13 00:10:00,
2013-06-12 19:13:00,87.4,62.2,29.62,West,270,0.0,0.0,43,0.00,,CLR,0.00,VWS V14.01,2013-06-13 00:13:00,
2013-06-12 19:14:00,87.4,62.8,29.62,West,270,4.0,4.0,44,0.00,,CLR,0.00,VWS V14.01,2013-06-13 00:14:00,
2013-06-12 19:15:00,87.4,62.8,29.62,West,270,4.0,4.0,44,0.00,,CLR,0.00,VWS V14.01,2013-06-13 00:15:00,
2013-06-12 19:17:00,87.4,62.2,29.62,West,270,0.0,0.0,43,0.00,,CLR,0.00,VWS V14.01,2013-06-13 00:17:00,
2013-06-12 19:19:00,87.4,62.2,29.62,WSW,248,0.0,0.0,43,0.00,,CLR,0.00,VWS V14.01,2013-06-13 00:19:00,
2013-06-12 19:21:00,87.4,62.2,29.62,West,270,0.0,0.0,43,0.00,,CLR,0.00,VWS V14.01,2013-06-13 00:21:00,
2013-06-12 19:22:00,87.2,62.0,29.62,West,270,4.0,4.0,43,0.00,,CLR,0.00,VWS V14.01,2013-06-13 00:22:00,
2013-06-12 19:23:00,87.2,62.0,29.62,West,270,0.0,0.0,43,0.00,,CLR,0.00,VWS V14.01,2013-06-13 00:23:00,
2013-06-12 19:24:00,87.2,62.0,29.62,West,270,0.0,0.0,43,0.00,,CLR,0.00,VWS V14.01,2013-06-13 00:24:00,
2013-06-12 19:26:00,87.2,62.0,29.62,West,270,0.0,5.2,43,0.00,,CLR,0.00,VWS V14.01,2013-06-13 00:26:00,
2013-06-12 19:27:00,87.2,62.0,29.62,West,270,0.0,0.0,43,0.00,,CLR,0.00,VWS V14.01,2013-06-13 00:27:00,
2013-06-12 19:30:00,87.0,61.8,29.62,WNW,292,1.6,1.6,43,0.00,,CLR,0.00,VWS V14.01,2013-06-13 00:30:00,
2013-06-12 19:31:00,87.0,61.8,29.62,West,270,0.0,0.0,43,0.00,,CLR,0.00,VWS V14.01,2013-06-13 00:31:00,
2013-06-12 19:32:00,87.2,62.0,29.62,West,270,2.2,2.2,43,0.00,,CLR,0.00,VWS V14.01,2013-06-13 00:32:00,
2013-06-12 19:36:00,87.0,61.8,29.62,West,270,8.0,8.0,43,0.00,,CLR,0.00,VWS V14.01,2013-06-13 00:36:00,
2013-06-12 19:38:00,87.0,61.8,29.62,West,270,0.0,10.6,43,0.00,,CLR,0.00,VWS V14.01,2013-06-13 00:38:00,
2013-06-12 19:39:00,87.0,61.8,29.62,SSW,202,0.0,0.0,43,0.00,,CLR,0.00,VWS V14.01,2013-06-13 00:39:00,
2013-06-12 19:40:00,86.9,61.7,29.62,West,270,2.6,2.6,43,0.00,,CLR,0.00,VWS V14.01,2013-06-13 00:40:00,
2013-06-12 19:44:00,86.9,61.7,29.62,WSW,248,0.0,0.0,43,0.00,,CLR,0.00,VWS V14.01,2013-06-13 00:44:00,
2013-06-12 19:45:00,86.9,61.7,29.62,West,270,0.0,0.0,43,0.00,,CLR,0.00,VWS V14.01,2013-06-13 00:45:00,
2013-06-12 19:47:00,86.9,61.7,29.62,West,270,6.6,6.6,43,0.00,,CLR,0.00,VWS V14.01,2013-06-13 00:47:00,
2013-06-12 19:48:00,86.9,61.7,29.62,West,270,0.4,6.6,43,0.00,,CLR,0.00,VWS V14.01,2013-06-13 00:48:00,
2013-06-12 19:50:00,86.7,61.5,29.62,West,270,5.2,5.2,43,0.00,,CLR,0.00,VWS V14.01,2013-06-13 00:50:00,
2013-06-12 19:51:00,86.7,62.2,29.62,West,270,6.2,6.2,44,0.00,,CLR,0.00,VWS V14.01,2013-06-13 00:51:00,
2013-06-12 19:52:00,86.7,62.2,29.62,SW,225,0.0,6.2,44,0.00,,CLR,0.00,VWS V14.01,2013-06-13 00:52:00,
2013-06-12 19:54:00,86.7,62.2,29.62,West,270,2.2,2.2,44,0.00,,CLR,0.00,VWS V14.01,2013-06-13 00:54:00,
2013-06-12 19:55:00,86.5,62.0,29.62,West,270,0.0,2.2,44,0.00,,CLR,0.00,VWS V14.01,2013-06-13 00:55:00,
2013-06-12 19:57:00,86.5,62.0,29.62,West,270,4.8,6.2,44,0.00,,CLR,0.00,VWS V14.01,2013-06-13 00:57:00,
2013-06-12 19:59:00,86.5,62.0,29.63,West,270,0.0,2.6,44,0.00,,CLR,0.00,VWS V14.01,2013-06-13 00:59:00,
2013-06-12 20:00:00,86.3,62.5,29.63,West,270,0.0,2.6,45,0.00,,CLR,0.00,VWS V14.01,2013-06-13 01:00:00,
2013-06-12 20:01:00,86.5,62.7,29.63,West,270,0.0,0.0,45,0.00,,CLR,0.00,VWS V14.01,2013-06-13 01:01:00,
2013-06-12 20:02:00,86.3,62.5,29.62,WNW,292,1.2,1.2,45,0.00,,CLR,0.00,VWS V14.01,2013-06-13 01:02:00,
2013-06-12 20:06:00,86.3,62.5,29.63,West,270,0.0,0.0,45,0.00,,CLR,0.00,VWS V14.01,2013-06-13 01:06:00,
2013-06-12 20:07:00,86.3,62.5,29.63,West,270,0.0,0.0,45,0.00,,CLR,0.00,VWS V14.01,2013-06-13 01:07:00,
2013-06-12 20:08:00,86.1,62.3,29.63,West,270,0.0,0.0,45,0.00,,CLR,0.00,VWS V14.01,2013-06-13 01:08:00,
2013-06-12 20:09:00,86.1,62.3,29.63,WNW,292,0.0,0.0,45,0.00,,CLR,0.00,VWS V14.01,2013-06-13 01:09:00,
2013-06-12 20:10:00,86.1,62.3,29.63,WNW,292,0.0,0.0,45,0.00,,CLR,0.00,VWS V14.01,2013-06-13 01:10:00,
2013-06-12 20:14:00,86.1,62.3,29.63,West,270,0.0,5.8,45,0.00,,CLR,0.00,VWS V14.01,2013-06-13 01:14:00,
2013-06-12 20:15:00,86.1,62.3,29.63,WNW,292,0.0,0.0,45,0.00,,CLR,0.00,VWS V14.01,2013-06-13 01:15:00,
2013-06-12 20:18:00,86.1,62.3,29.63,West,270,0.0,0.0,45,0.00,,CLR,0.00,VWS V14.01,2013-06-13 01:18:00,
2013-06-12 20:20:00,86.0,62.2,29.63,West,270,8.8,8.8,45,0.00,,CLR,0.00,VWS V14.01,2013-06-13 01:20:00,
2013-06-12 20:21:00,85.8,62.0,29.63,West,270,0.0,8.8,45,0.00,,CLR,0.00,VWS V14.01,2013-06-13 01:21:00,
2013-06-12 20:23:00,85.8,62.7,29.62,WNW,292,0.4,0.4,46,0.00,,CLR,0.00,VWS V14.01,2013-06-13 01:23:00,
2013-06-12 20:24:00,85.6,62.5,29.62,West,270,0.0,0.4,46,0.00,,CLR,0.00,VWS V14.01,2013-06-13 01:24:00,
2013-06-12 20:26:00,85.6,62.5,29.62,West,270,0.0,0.0,46,0.00,,CLR,0.00,VWS V14.01,2013-06-13 01:26:00,
2013-06-12 20:27:00,85.8,62.7,29.62,West,270,0.0,0.0,46,0.00,,CLR,0.00,VWS V14.01,2013-06-13 01:27:00,
2013-06-12 20:28:00,85.6,62.5,29.62,WNW,292,0.0,0.0,46,0.00,,CLR,0.00,VWS V14.01,2013-06-13 01:28:00,
2013-06-12 20:30:00,85.6,62.5,29.62,WNW,292,0.0,0.0,46,0.00,,CLR,0.00,VWS V14.01,2013-06-13 01:30:00,
2013-06-12 20:31:00,85.6,62.5,29.63,West,270,0.0,0.0,46,0.00,,CLR,0.00,VWS V14.01,2013-06-13 01:31:00,
2013-06-12 20:32:00,85.4,62.3,29.63,West,270,0.0,0.0,46,0.00,,CLR,0.00,VWS V14.01,2013-06-13 01:32:00,
2013-06-12 20:35:00,85.4,62.3,29.62,West,270,0.0,0.0,46,0.00,,CLR,0.00,VWS V14.01,2013-06-13 01:35:00,
2013-06-12 20:36:00,85.4,62.3,29.63,WNW,292,0.0,0.0,46,0.00,,CLR,0.00,VWS V14.01,2013-06-13 01:36:00,
2013-06-12 20:38:00,85.1,62.0,29.63,West,270,1.2,1.2,46,0.00,,CLR,0.00,VWS V14.01,2013-06-13 01:38:00,
2013-06-12 20:40:00,85.2,62.7,29.63,West,270,0.0,1.2,47,0.00,,CLR,0.00,VWS V14.01,2013-06-13 01:40:00,
2013-06-12 20:43:00,85.1,62.6,29.63,West,270,0.0,0.0,47,0.00,,CLR,0.00,VWS V14.01,2013-06-13 01:43:00,
2013-06-12 20:44:00,85.1,62.6,29.63,WNW,292,2.2,2.2,47,0.00,,CLR,0.00,VWS V14.01,2013-06-13 01:44:00,
2013-06-12 20:45:00,85.1,62.6,29.63,West,270,0.0,2.2,47,0.00,,CLR,0.00,VWS V14.01,2013-06-13 01:45:00,
2013-06-12 20:46:00,85.1,62.6,29.63,West,270,0.0,0.0,47,0.00,,CLR,0.00,VWS V14.01,2013-06-13 01:46:00,
2013-06-12 20:48:00,84.9,63.0,29.63,WSW,248,0.0,0.0,48,0.00,,CLR,0.00,VWS V14.01,2013-06-13 01:48:00,
2013-06-12 20:49:00,84.9,63.0,29.63,WNW,292,0.0,0.0,48,0.00,,CLR,0.00,VWS V14.01,2013-06-13 01:49:00,
2013-06-12 20:51:00,84.7,62.9,29.63,West,270,0.0,0.0,48,0.00,,CLR,0.00,VWS V14.01,2013-06-13 01:51:00,
2013-06-12 20:53:00,84.5,63.3,29.62,West,270,0.0,0.0,49,0.00,,CLR,0.00,VWS V14.01,2013-06-13 01:53:00,
2013-06-12 20:54:00,84.5,63.3,29.62,West,270,0.0,0.0,49,0.00,,CLR,0.00,VWS V14.01,2013-06-13 01:54:00,
2013-06-12 20:56:00,84.5,63.3,29.62,West,270,3.4,3.4,49,0.00,,CLR,0.00,VWS V14.01,2013-06-13 01:56:00,
2013-06-12 21:01:00,84.3,63.1,29.63,West,270,0.0,0.0,49,0.00,,CLR,0.00,VWS V14.01,2013-06-13 02:01:00,
2013-06-12 21:02:00,84.5,63.3,29.63,West,270,2.6,2.6,49,0.00,,CLR,0.00,VWS V14.01,2013-06-13 02:02:00,
2013-06-12 21:04:00,84.3,63.1,29.63,West,270,6.6,6.6,49,0.00,,CLR,0.00,VWS V14.01,2013-06-13 02:04:00,
2013-06-12 21:08:00,84.3,63.1,29.63,West,270,0.0,0.0,49,0.00,,CLR,0.00,VWS V14.01,2013-06-13 02:08:00,
2013-06-12 21:09:00,84.3,63.1,29.64,West,270,11.6,11.6,49,0.00,,CLR,0.00,VWS V14.01,2013-06-13 02:09:00,
2013-06-12 21:11:00,84.3,63.1,29.63,West,270,3.0,3.0,49,0.00,,CLR,0.00,VWS V14.01,2013-06-13 02:11:00,
2013-06-12 21:12:00,84.3,63.1,29.64,WSW,248,0.0,0.0,49,0.00,,CLR,0.00,VWS V14.01,2013-06-13 02:12:00,
2013-06-12 21:14:00,83.8,62.0,29.64,West,270,7.0,7.0,48,0.00,,CLR,0.00,VWS V14.01,2013-06-13 02:14:00,
2013-06-12 21:15:00,83.6,60.7,29.64,West,270,6.6,7.0,46,0.00,,CLR,0.00,VWS V14.01,2013-06-13 02:15:00,
2013-06-12 21:18:00,82.9,59.4,29.64,West,270,4.8,4.8,45,0.00,,CLR,0.00,VWS V14.01,2013-06-13 02:18:00,
2013-06-12 21:19:00,82.5,59.0,29.64,West,270,0.0,4.8,45,0.00,,CLR,0.00,VWS V14.01,2013-06-13 02:19:00,
2013-06-12 21:20:00,82.5,59.0,29.64,West,270,0.0,4.8,45,0.00,,CLR,0.00,VWS V14.01,2013-06-13 02:20:00,
2013-06-12 21:23:00,82.0,59.2,29.64,West,270,7.0,7.6,46,0.00,,CLR,0.00,VWS V14.01,2013-06-13 02:23:00,
2013-06-12 21:24:00,81.8,59.0,29.64,NW,315,0.0,0.0,46,0.00,,CLR,0.00,VWS V14.01,2013-06-13 02:24:00,
2013-06-12 21:26:00,81.6,59.4,29.64,WNW,292,4.8,4.8,47,0.00,,CLR,0.00,VWS V14.01,2013-06-13 02:26:00,
2013-06-12 21:28:00,81.6,60.0,29.65,WNW,292,6.2,6.2,48,0.00,,CLR,0.00,VWS V14.01,2013-06-13 02:28:00,
2013-06-12 21:29:00,81.6,60.6,29.65,West,270,0.0,6.2,49,0.00,,CLR,0.00,VWS V14.01,2013-06-13 02:29:00,
2013-06-12 21:30:00,81.8,60.8,29.65,NW,315,0.0,6.2,49,0.00,,CLR,0.00,VWS V14.01,2013-06-13 02:30:00,
2013-06-12 21:31:00,81.8,61.4,29.65,West,270,8.4,8.4,50,0.00,,CLR,0.00,VWS V14.01,2013-06-13 02:31:00,
2013-06-12 21:32:00,81.8,61.9,29.65,West,270,5.8,8.4,51,0.00,,CLR,0.00,VWS V14.01,2013-06-13 02:32:00,
2013-06-12 21:35:00,82.0,63.2,29.65,West,270,10.2,11.6,53,0.00,,CLR,0.00,VWS V14.01,2013-06-13 02:35:00,
2013-06-12 21:36:00,82.2,63.4,29.65,WNW,292,7.0,11.6,53,0.00,,CLR,0.00,VWS V14.01,2013-06-13 02:36:00,
2013-06-12 21:37:00,82.5,63.7,29.65,West,270,11.6,11.6,53,0.00,,CLR,0.00,VWS V14.01,2013-06-13 02:37:00,
2013-06-12 21:40:00,82.5,63.7,29.66,West,270,9.8,10.6,53,0.00,,CLR,0.00,VWS V14.01,2013-06-13 02:40:00,
2013-06-12 21:41:00,82.5,63.7,29.65,WNW,292,2.2,2.2,53,0.00,,CLR,0.00,VWS V14.01,2013-06-13 02:41:00,
2013-06-12 21:42:00,82.5,63.7,29.65,NW,315,2.2,2.2,53,0.00,,CLR,0.00,VWS V14.01,2013-06-13 02:42:00,
2013-06-12 21:44:00,82.5,63.1,29.65,West,270,2.6,4.8,52,0.00,,CLR,0.00,VWS V14.01,2013-06-13 02:44:00,
2013-06-12 21:46:00,82.4,63.0,29.65,WNW,292,17.0,17.0,52,0.00,,CLR,0.00,VWS V14.01,2013-06-13 02:46:00,
2013-06-12 21:47:00,82.4,63.0,29.65,WNW,292,7.0,7.0,52,0.00,,CLR,0.00,VWS V14.01,2013-06-13 02:47:00,
2013-06-12 21:49:00,82.0,62.7,29.65,West,270,8.4,8.4,52,0.00,,CLR,0.00,VWS V14.01,2013-06-13 02:49:00,
2013-06-12 21:51:00,82.0,62.7,29.65,West,270,13.4,13.4,52,0.00,,SCT045,0.00,VWS V14.01,2013-06-13 02:51:00,
2013-06-12 21:52:00,81.8,62.5,29.66,NNW,338,12.8,13.4,52,0.00,,SCT045,0.00,VWS V14.01,2013-06-13 02:52:00,
2013-06-12 21:56:00,81.6,61.7,29.66,NW,315,12.0,12.0,51,0.00,,SCT045,0.00,VWS V14.01,2013-06-13 02:56:00,
2013-06-12 21:57:00,81.5,61.7,29.66,NW,315,8.8,8.8,51,0.00,,SCT045,0.00,VWS V14.01,2013-06-13 02:57:00,
2013-06-12 21:58:00,81.3,61.5,29.66,WNW,292,11.0,12.8,51,0.00,,SCT045,0.00,VWS V14.01,2013-06-13 02:58:00,
2013-06-12 21:59:00,81.3,61.5,29.66,WNW,292,11.0,11.0,51,0.00,,SCT045,0.00,VWS V14.01,2013-06-13 02:59:00,
2013-06-12 22:00:00,81.3,62.0,29.66,NW,315,0.0,11.0,52,0.00,,SCT045,0.00,VWS V14.01,2013-06-13 03:00:00,
2013-06-12 22:02:00,81.1,61.8,29.67,WNW,292,8.4,8.4,52,0.00,,SCT045,0.00,VWS V14.01,2013-06-13 03:02:00,
2013-06-12 22:04:00,81.3,62.0,29.67,NW,315,5.2,9.8,52,0.00,,SCT045,0.00,VWS V14.01,2013-06-13 03:04:00,
2013-06-12 22:05:00,81.3,62.0,29.67,NW,315,5.2,5.2,52,0.00,,SCT045,0.00,VWS V14.01,2013-06-13 03:05:00,
2013-06-12 22:08:00,80.9,62.2,29.67,WNW,292,6.6,6.6,53,0.00,,SCT045,0.00,VWS V14.01,2013-06-13 03:08:00,
2013-06-12 22:12:00,80.6,61.9,29.67,WNW,292,7.0,7.0,53,0.00,,SCT045,0.00,VWS V14.01,2013-06-13 03:12:00,
2013-06-12 22:14:00,80.2,62.1,29.67,NNW,338,11.6,17.0,54,0.00,,SCT045,0.00,VWS V14.01,2013-06-13 03:14:00,
2013-06-12 22:15:00,80.0,61.9,29.67,NW,315,10.2,10.2,54,0.00,,SCT045,0.00,VWS V14.01,2013-06-13 03:15:00,
2013-06-12 22:17:00,79.8,61.7,29.67,NW,315,4.4,4.4,54,0.00,,SCT045,0.00,VWS V14.01,2013-06-13 03:17:00,
2013-06-12 22:19:00,79.7,61.6,29.67,West,270,7.6,7.6,54,0.00,,SCT045,0.00,VWS V14.01,2013-06-13 03:19:00,
2013-06-12 22:20:00,79.5,61.4,29.67,West,270,7.0,7.6,54,0.00,,SCT045,0.00,VWS V14.01,2013-06-13 03:20:00,
2013-06-12 22:22:00,79.1,61.6,29.67,WNW,292,9.8,9.8,55,0.00,,SCT045,0.00,VWS V14.01,2013-06-13 03:22:00,
2013-06-12 22:24:00,78.9,61.9,29.67,WNW,292,1.6,4.8,56,0.00,,SCT045,0.00,VWS V14.01,2013-06-13 03:24:00,
2013-06-12 22:25:00,78.9,61.9,29.68,WNW,292,9.8,9.8,56,0.00,,SCT045,0.00,VWS V14.01,2013-06-13 03:25:00,
2013-06-12 22:26:00,78.8,61.8,29.68,NW,315,2.6,9.8,56,0.00,,SCT045,0.00,VWS V14.01,2013-06-13 03:26:00,
2013-06-12 22:27:00,78.8,61.8,29.68,NW,315,2.6,2.6,56,0.00,,SCT045,0.00,VWS V14.01,2013-06-13 03:27:00,
2013-06-12 22:30:00,78.4,61.9,29.68,West,270,5.2,7.6,57,0.00,,SCT045,0.00,VWS V14.01,2013-06-13 03:30:00,
2013-06-12 22:32:00,78.0,61.0,29.68,WNW,292,7.6,7.6,56,0.00,,SCT045,0.00,VWS V14.01,2013-06-13 03:32:00,
2013-06-12 22:34:00,78.0,61.5,29.68,West,270,4.8,7.6,57,0.00,,SCT045,0.00,VWS V14.01,2013-06-13 03:34:00,
2013-06-12 22:35:00,77.9,61.5,29.69,WNW,292,10.6,10.6,57,0.00,,SCT045,0.00,VWS V14.01,2013-06-13 03:35:00,
2013-06-12 22:36:00,77.7,61.3,29.69,WNW,292,11.0,11.0,57,0.00,,SCT045,0.00,VWS V14.01,2013-06-13 03:36:00,
2013-06-12 22:39:00,77.3,61.4,29.69,West,270,4.4,4.4,58,0.00,,SCT045,0.00,VWS V14.01,2013-06-13 03:39:00,
2013-06-12 22:40:00,77.3,61.4,29.68,WNW,292,6.6,6.6,58,0.00,,SCT045,0.00,VWS V14.01,2013-06-13 03:40:00,
2013-06-12 22:41:00,77.3,61.4,29.68,West,270,12.0,12.0,58,0.00,,SCT045,0.00,VWS V14.01,2013-06-13 03:41:00,
2013-06-12 22:43:00,77.1,61.2,29.68,WNW,292,2.2,2.2,58,0.00,,SCT045,0.00,VWS V14.01,2013-06-13 03:43:00,
2013-06-12 22:46:00,77.0,61.1,29.68,West,270,6.6,6.6,58,0.00,,SCT045,0.00,VWS V14.01,2013-06-13 03:46:00,
2013-06-12 22:48:00,76.8,60.9,29.68,West,270,7.6,7.6,58,0.00,,SCT045,0.00,VWS V14.01,2013-06-13 03:48:00,
2013-06-12 22:49:00,76.6,60.7,29.68,West,270,2.2,2.2,58,0.00,,SCT045,0.00,VWS V14.01,2013-06-13 03:49:00,
2013-06-12 22:52:00,76.4,60.5,29.68,West,270,3.0,3.0,58,0.00,,FEW044,0.00,VWS V14.01,2013-06-13 03:52:00,
2013-06-12 22:53:00,76.4,60.5,29.68,WNW,292,0.0,0.0,58,0.00,,FEW044,0.00,VWS V14.01,2013-06-13 03:53:00,
2013-06-12 22:54:00,76.4,60.5,29.69,West,270,5.2,5.2,58,0.00,,FEW044,0.00,VWS V14.01,2013-06-13 03:54:00,
2013-06-12 22:55:00,76.4,60.5,29.69,West,270,4.4,4.4,58,0.00,,FEW044,0.00,VWS V14.01,2013-06-13 03:55:00,
2013-06-12 22:58:00,76.1,60.3,29.69,West,270,0.0,3.0,58,0.00,,FEW044,0.00,VWS V14.01,2013-06-13 03:58:00,
2013-06-12 23:00:00,75.9,60.6,29.69,West,270,6.6,6.6,59,0.00,,FEW044,0.00,VWS V14.01,2013-06-13 04:00:00,
2013-06-12 23:01:00,75.9,61.0,29.69,West,270,0.0,6.6,60,0.00,,FEW044,0.00,VWS V14.01,2013-06-13 04:01:00,
2013-06-12 23:02:00,75.9,61.0,29.69,West,270,3.4,3.4,60,0.00,,FEW044,0.00,VWS V14.01,2013-06-13 04:02:00,
2013-06-12 23:04:00,75.7,60.8,29.68,WSW,248,4.0,4.0,60,0.00,,FEW044,0.00,VWS V14.01,2013-06-13 04:04:00,
2013-06-12 23:06:00,75.3,60.5,29.68,West,270,0.0,4.0,60,0.00,,FEW044,0.00,VWS V14.01,2013-06-13 04:06:00,
2013-06-12 23:07:00,75.3,60.5,29.68,West,270,3.4,3.4,60,0.00,,FEW044,0.00,VWS V14.01,2013-06-13 04:07:00,
2013-06-12 23:09:00,75.3,60.5,29.68,West,270,0.0,0.0,60,0.00,,FEW044,0.00,VWS V14.01,2013-06-13 04:09:00,
2013-06-12 23:10:00,75.3,60.5,29.68,West,270,0.0,0.0,60,0.00,,FEW044,0.00,VWS V14.01,2013-06-13 04:10:00,
2013-06-12 23:11:00,75.3,60.5,29.68,WNW,292,11.0,11.0,60,0.00,,FEW044,0.00,VWS V14.01,2013-06-13 04:11:00,
2013-06-12 23:13:00,75.2,60.8,29.68,SW,225,0.0,3.0,61,0.00,,FEW044,0.00,VWS V14.01,2013-06-13 04:13:00,
2013-06-12 23:14:00,75.0,60.7,29.68,West,270,0.0,3.0,61,0.00,,FEW044,0.00,VWS V14.01,2013-06-13 04:14:00,
2013-06-12 23:16:00,74.8,60.5,29.68,West,270,1.6,1.6,61,0.00,,FEW044,0.00,VWS V14.01,2013-06-13 04:16:00,
2013-06-12 23:20:00,74.8,60.5,29.69,West,270,6.2,6.2,61,0.00,,FEW044,0.00,VWS V14.01,2013-06-13 04:20:00,
2013-06-12 23:21:00,74.6,60.3,29.69,West,270,0.0,6.2,61,0.00,,FEW044,0.00,VWS V14.01,2013-06-13 04:21:00,
2013-06-12 23:22:00,74.6,60.3,29.68,West,270,0.0,6.2,61,0.00,,FEW044,0.00,VWS V14.01,2013-06-13 04:22:00,
2013-06-12 23:24:00,74.6,60.3,29.68,West,270,0.0,0.0,61,0.00,,FEW044,0.00,VWS V14.01,2013-06-13 04:24:00,
2013-06-12 23:25:00,74.6,60.3,29.69,West,270,4.8,4.8,61,0.00,,FEW044,0.00,VWS V14.01,2013-06-13 04:25:00,
2013-06-12 23:27:00,74.4,60.1,29.69,West,270,7.0,7.0,61,0.00,,FEW044,0.00,VWS V14.01,2013-06-13 04:27:00,
2013-06-12 23:28:00,74.4,60.5,29.69,WNW,292,0.0,7.0,62,0.00,,FEW044,0.00,VWS V14.01,2013-06-13 04:28:00,
2013-06-12 23:31:00,74.4,60.5,29.69,WNW,292,9.2,9.8,62,0.00,,FEW044,0.00,VWS V14.01,2013-06-13 04:31:00,
2013-06-12 23:33:00,74.3,60.5,29.69,WNW,292,8.0,8.0,62,0.00,,FEW044,0.00,VWS V14.01,2013-06-13 04:33:00,
2013-06-12 23:35:00,74.3,60.5,29.70,WNW,292,5.8,5.8,62,0.00,,FEW044,0.00,VWS V14.01,2013-06-13 04:35:00,
2013-06-12 23:38:00,74.1,59.8,29.70,NW,315,0.0,0.0,61,0.00,,FEW044,0.00,VWS V14.01,2013-06-13 04:38:00,
2013-06-12 23:39:00,74.3,60.5,29.70,NW,315,9.2,9.2,62,0.00,,FEW044,0.00,VWS V14.01,2013-06-13 04:39:00,
2013-06-12 23:40:00,74.3,60.5,29.70,West,270,0.0,0.0,62,0.00,,BKN039,0.00,VWS V14.01,2013-06-13 04:40:00,
2013-06-12 23:41:00,74.3,60.5,29.70,WNW,292,3.4,3.4,62,0.00,,BKN039,0.00,VWS V14.01,2013-06-13 04:41:00,
2013-06-12 23:44:00,74.3,60.0,29.70,SW,225,1.6,10.2,61,0.00,,BKN039,0.00,VWS V14.01,2013-06-13 04:44:00,
2013-06-12 23:45:00,74.1,60.3,29.70,WNW,292,0.0,1.6,62,0.00,,BKN039,0.00,VWS V14.01,2013-06-13 04:45:00,
2013-06-12 23:47:00,74.1,60.7,29.70,West,270,0.0,5.2,63,0.00,,BKN039,0.00,VWS V14.01,2013-06-13 04:47:00,
2013-06-12 23:48:00,74.1,60.7,29.70,NNW,338,3.4,3.4,63,0.00,,BKN039,0.00,VWS V14.01,2013-06-13 04:48:00,
2013-06-12 23:50:00,74.1,60.7,29.70,WNW,292,0.0,4.8,63,0.00,,BKN039,0.00,VWS V14.01,2013-06-13 04:50:00,
2013-06-12 23:53:00,73.7,60.3,29.70,WNW,292,4.8,4.8,63,0.00,,BKN039,0.00,VWS V14.01,2013-06-13 04:53:00,
2013-06-12 23:54:00,73.7,60.3,29.71,NW,315,4.4,4.8,63,0.00,,BKN039,0.00,VWS V14.01,2013-06-13 04:54:00,
2013-06-12 23:55:00,73.9,60.5,29.70,WNW,292,0.0,4.4,63,0.00,,BKN039,0.00,VWS V14.01,2013-06-13 04:55:00,
2013-06-12 23:56:00,73.7,60.3,29.71,WNW,292,4.0,4.4,63,0.00,,BKN039,0.00,VWS V14.01,2013-06-13 04:56:00,
2013-06-12 23:59:00,73.7,60.3,29.71,NNW,338,8.4,8.4,63,0.00,,BKN039,0.00,VWS V14.01,2013-06-13 04:59:00,